<?xml version="1.0" encoding="UTF-8" standalone="no" ?>
<gpx xmlns="http://www.topografix.com/GPX/1/1" xmlns:xsi="http://www.w3.org/2001/XMLSchema-instance" xsi:schemaLocation="http://www.topografix.com/GPX/1/1 http://www.topografix.com/GPX/1/1/gpx.xsd" version="1.1" creator="VisuGPX - https://www.visugpx.com">
  <metadata>
    <name>Monte Gozzi - Corse Sud</name>
    <desc><![CDATA[Randonnée aller-retour de la Chapelle San Chirgu jusqu\'au Monte Gozzi.]]></desc>
  </metadata>
  <trk>
    <name><![CDATA[14-NOV-14MONTE-GOSU]]></name>
    <trkseg>
      <trkpt lat="42.01079" lon="8.77001">
        <ele>425.52</ele>
        <time>2014-11-14T09:40:18Z</time>
      </trkpt>
      <trkpt lat="42.01081" lon="8.77006">
        <ele>427.44</ele>
        <time>2014-11-14T09:40:23Z</time>
      </trkpt>
      <trkpt lat="42.01084" lon="8.77013">
        <ele>428.89</ele>
        <time>2014-11-14T09:40:30Z</time>
      </trkpt>
      <trkpt lat="42.01087" lon="8.77026">
        <ele>431.29</ele>
        <time>2014-11-14T09:40:41Z</time>
      </trkpt>
      <trkpt lat="42.01087" lon="8.77028">
        <ele>431.29</ele>
        <time>2014-11-14T09:40:43Z</time>
      </trkpt>
      <trkpt lat="42.01088" lon="8.77035">
        <ele>432.73</ele>
        <time>2014-11-14T09:40:50Z</time>
      </trkpt>
      <trkpt lat="42.01088" lon="8.7704">
        <ele>433.21</ele>
        <time>2014-11-14T09:40:54Z</time>
      </trkpt>
      <trkpt lat="42.01091" lon="8.7705">
        <ele>434.65</ele>
        <time>2014-11-14T09:41:07Z</time>
      </trkpt>
      <trkpt lat="42.01092" lon="8.77051">
        <ele>435.13</ele>
        <time>2014-11-14T09:41:18Z</time>
      </trkpt>
      <trkpt lat="42.01094" lon="8.77057">
        <ele>436.1</ele>
        <time>2014-11-14T09:41:24Z</time>
      </trkpt>
      <trkpt lat="42.01098" lon="8.77062">
        <ele>437.54</ele>
        <time>2014-11-14T09:41:32Z</time>
      </trkpt>
      <trkpt lat="42.01102" lon="8.77071">
        <ele>438.98</ele>
        <time>2014-11-14T09:41:44Z</time>
      </trkpt>
      <trkpt lat="42.01104" lon="8.77074">
        <ele>439.46</ele>
        <time>2014-11-14T09:41:54Z</time>
      </trkpt>
      <trkpt lat="42.01109" lon="8.77078">
        <ele>440.42</ele>
        <time>2014-11-14T09:42:06Z</time>
      </trkpt>
      <trkpt lat="42.01111" lon="8.77079">
        <ele>440.9</ele>
        <time>2014-11-14T09:42:08Z</time>
      </trkpt>
      <trkpt lat="42.01116" lon="8.77084">
        <ele>442.34</ele>
        <time>2014-11-14T09:42:18Z</time>
      </trkpt>
      <trkpt lat="42.0112" lon="8.77088">
        <ele>443.31</ele>
        <time>2014-11-14T09:42:31Z</time>
      </trkpt>
      <trkpt lat="42.01121" lon="8.7709">
        <ele>444.27</ele>
        <time>2014-11-14T09:42:41Z</time>
      </trkpt>
      <trkpt lat="42.01125" lon="8.77095">
        <ele>445.71</ele>
        <time>2014-11-14T09:42:52Z</time>
      </trkpt>
      <trkpt lat="42.01129" lon="8.77102">
        <ele>448.11</ele>
        <time>2014-11-14T09:43:04Z</time>
      </trkpt>
      <trkpt lat="42.01135" lon="8.77106">
        <ele>450.03</ele>
        <time>2014-11-14T09:43:19Z</time>
      </trkpt>
      <trkpt lat="42.01136" lon="8.77108">
        <ele>451</ele>
        <time>2014-11-14T09:43:35Z</time>
      </trkpt>
      <trkpt lat="42.0114" lon="8.77113">
        <ele>452.92</ele>
        <time>2014-11-14T09:43:50Z</time>
      </trkpt>
      <trkpt lat="42.01143" lon="8.7712">
        <ele>454.36</ele>
        <time>2014-11-14T09:44:05Z</time>
      </trkpt>
      <trkpt lat="42.01145" lon="8.77128">
        <ele>455.32</ele>
        <time>2014-11-14T09:44:19Z</time>
      </trkpt>
      <trkpt lat="42.0115" lon="8.77141">
        <ele>458.21</ele>
        <time>2014-11-14T09:44:37Z</time>
      </trkpt>
      <trkpt lat="42.01153" lon="8.77146">
        <ele>459.65</ele>
        <time>2014-11-14T09:44:55Z</time>
      </trkpt>
      <trkpt lat="42.01155" lon="8.77149">
        <ele>461.57</ele>
        <time>2014-11-14T09:45:16Z</time>
      </trkpt>
      <trkpt lat="42.01158" lon="8.77151">
        <ele>463.01</ele>
        <time>2014-11-14T09:45:29Z</time>
      </trkpt>
      <trkpt lat="42.01158" lon="8.77157">
        <ele>463.49</ele>
        <time>2014-11-14T09:45:47Z</time>
      </trkpt>
      <trkpt lat="42.01162" lon="8.77163">
        <ele>464.45</ele>
        <time>2014-11-14T09:46:02Z</time>
      </trkpt>
      <trkpt lat="42.01165" lon="8.77174">
        <ele>466.38</ele>
        <time>2014-11-14T09:46:20Z</time>
      </trkpt>
      <trkpt lat="42.01164" lon="8.7718">
        <ele>467.34</ele>
        <time>2014-11-14T09:46:35Z</time>
      </trkpt>
      <trkpt lat="42.01164" lon="8.7719">
        <ele>469.26</ele>
        <time>2014-11-14T09:46:49Z</time>
      </trkpt>
      <trkpt lat="42.01163" lon="8.772">
        <ele>470.7</ele>
        <time>2014-11-14T09:47:06Z</time>
      </trkpt>
      <trkpt lat="42.01164" lon="8.77207">
        <ele>471.66</ele>
        <time>2014-11-14T09:47:23Z</time>
      </trkpt>
      <trkpt lat="42.01163" lon="8.7721">
        <ele>473.11</ele>
        <time>2014-11-14T09:47:39Z</time>
      </trkpt>
      <trkpt lat="42.01162" lon="8.77217">
        <ele>475.03</ele>
        <time>2014-11-14T09:47:55Z</time>
      </trkpt>
      <trkpt lat="42.01162" lon="8.77222">
        <ele>475.99</ele>
        <time>2014-11-14T09:48:12Z</time>
      </trkpt>
      <trkpt lat="42.01161" lon="8.77233">
        <ele>478.39</ele>
        <time>2014-11-14T09:48:31Z</time>
      </trkpt>
      <trkpt lat="42.01159" lon="8.77242">
        <ele>480.32</ele>
        <time>2014-11-14T09:48:45Z</time>
      </trkpt>
      <trkpt lat="42.01158" lon="8.77248">
        <ele>481.28</ele>
        <time>2014-11-14T09:48:57Z</time>
      </trkpt>
      <trkpt lat="42.01158" lon="8.77254">
        <ele>482.72</ele>
        <time>2014-11-14T09:49:12Z</time>
      </trkpt>
      <trkpt lat="42.01157" lon="8.77264">
        <ele>484.16</ele>
        <time>2014-11-14T09:49:26Z</time>
      </trkpt>
      <trkpt lat="42.01155" lon="8.77265">
        <ele>484.64</ele>
        <time>2014-11-14T09:49:40Z</time>
      </trkpt>
      <trkpt lat="42.01151" lon="8.77262">
        <ele>484.16</ele>
        <time>2014-11-14T09:49:55Z</time>
      </trkpt>
      <trkpt lat="42.01151" lon="8.77261">
        <ele>484.16</ele>
        <time>2014-11-14T09:50:15Z</time>
      </trkpt>
      <trkpt lat="42.01149" lon="8.77261">
        <ele>484.16</ele>
        <time>2014-11-14T09:50:37Z</time>
      </trkpt>
      <trkpt lat="42.01151" lon="8.77262">
        <ele>484.16</ele>
        <time>2014-11-14T09:50:49Z</time>
      </trkpt>
      <trkpt lat="42.0115" lon="8.7726">
        <ele>484.16</ele>
        <time>2014-11-14T09:51:07Z</time>
      </trkpt>
      <trkpt lat="42.0115" lon="8.7726">
        <ele>484.64</ele>
        <time>2014-11-14T09:51:25Z</time>
      </trkpt>
      <trkpt lat="42.0115" lon="8.7726">
        <ele>484.16</ele>
        <time>2014-11-14T09:51:50Z</time>
      </trkpt>
      <trkpt lat="42.01149" lon="8.7726">
        <ele>484.16</ele>
        <time>2014-11-14T09:52:17Z</time>
      </trkpt>
      <trkpt lat="42.01151" lon="8.77264">
        <ele>484.64</ele>
        <time>2014-11-14T09:52:42Z</time>
      </trkpt>
      <trkpt lat="42.01154" lon="8.77274">
        <ele>486.56</ele>
        <time>2014-11-14T09:53:00Z</time>
      </trkpt>
      <trkpt lat="42.01152" lon="8.77289">
        <ele>488.97</ele>
        <time>2014-11-14T09:53:21Z</time>
      </trkpt>
      <trkpt lat="42.01152" lon="8.77298">
        <ele>490.41</ele>
        <time>2014-11-14T09:53:42Z</time>
      </trkpt>
      <trkpt lat="42.01151" lon="8.7731">
        <ele>492.81</ele>
        <time>2014-11-14T09:53:59Z</time>
      </trkpt>
      <trkpt lat="42.01153" lon="8.77318">
        <ele>494.26</ele>
        <time>2014-11-14T09:54:17Z</time>
      </trkpt>
      <trkpt lat="42.01154" lon="8.77329">
        <ele>495.7</ele>
        <time>2014-11-14T09:54:32Z</time>
      </trkpt>
      <trkpt lat="42.01154" lon="8.77333">
        <ele>497.62</ele>
        <time>2014-11-14T09:54:51Z</time>
      </trkpt>
      <trkpt lat="42.01154" lon="8.77338">
        <ele>500.02</ele>
        <time>2014-11-14T09:55:13Z</time>
      </trkpt>
      <trkpt lat="42.01153" lon="8.77352">
        <ele>502.43</ele>
        <time>2014-11-14T09:55:36Z</time>
      </trkpt>
      <trkpt lat="42.01152" lon="8.77359">
        <ele>504.83</ele>
        <time>2014-11-14T09:55:55Z</time>
      </trkpt>
      <trkpt lat="42.01154" lon="8.77364">
        <ele>505.79</ele>
        <time>2014-11-14T09:56:12Z</time>
      </trkpt>
      <trkpt lat="42.01153" lon="8.77372">
        <ele>507.23</ele>
        <time>2014-11-14T09:56:25Z</time>
      </trkpt>
      <trkpt lat="42.0115" lon="8.77386">
        <ele>509.16</ele>
        <time>2014-11-14T09:56:39Z</time>
      </trkpt>
      <trkpt lat="42.0115" lon="8.77392">
        <ele>510.6</ele>
        <time>2014-11-14T09:56:54Z</time>
      </trkpt>
      <trkpt lat="42.0115" lon="8.77398">
        <ele>511.56</ele>
        <time>2014-11-14T09:57:12Z</time>
      </trkpt>
      <trkpt lat="42.01149" lon="8.77404">
        <ele>512.04</ele>
        <time>2014-11-14T09:57:34Z</time>
      </trkpt>
      <trkpt lat="42.01148" lon="8.77408">
        <ele>511.56</ele>
        <time>2014-11-14T09:57:55Z</time>
      </trkpt>
      <trkpt lat="42.01146" lon="8.77413">
        <ele>512.04</ele>
        <time>2014-11-14T09:58:12Z</time>
      </trkpt>
      <trkpt lat="42.01145" lon="8.77414">
        <ele>512.04</ele>
        <time>2014-11-14T09:58:33Z</time>
      </trkpt>
      <trkpt lat="42.01145" lon="8.77414">
        <ele>512.04</ele>
        <time>2014-11-14T09:59:04Z</time>
      </trkpt>
      <trkpt lat="42.01145" lon="8.77415">
        <ele>513.48</ele>
        <time>2014-11-14T09:59:19Z</time>
      </trkpt>
      <trkpt lat="42.01145" lon="8.77418">
        <ele>514.92</ele>
        <time>2014-11-14T09:59:31Z</time>
      </trkpt>
      <trkpt lat="42.01146" lon="8.7742">
        <ele>515.88</ele>
        <time>2014-11-14T09:59:44Z</time>
      </trkpt>
      <trkpt lat="42.01145" lon="8.77424">
        <ele>517.33</ele>
        <time>2014-11-14T09:59:56Z</time>
      </trkpt>
      <trkpt lat="42.01144" lon="8.77427">
        <ele>517.81</ele>
        <time>2014-11-14T10:00:10Z</time>
      </trkpt>
      <trkpt lat="42.01142" lon="8.77431">
        <ele>519.25</ele>
        <time>2014-11-14T10:00:26Z</time>
      </trkpt>
      <trkpt lat="42.01138" lon="8.77437">
        <ele>521.17</ele>
        <time>2014-11-14T10:00:43Z</time>
      </trkpt>
      <trkpt lat="42.01137" lon="8.77441">
        <ele>522.61</ele>
        <time>2014-11-14T10:00:57Z</time>
      </trkpt>
      <trkpt lat="42.01136" lon="8.77445">
        <ele>523.58</ele>
        <time>2014-11-14T10:01:12Z</time>
      </trkpt>
      <trkpt lat="42.01136" lon="8.77449">
        <ele>525.98</ele>
        <time>2014-11-14T10:01:30Z</time>
      </trkpt>
      <trkpt lat="42.01136" lon="8.77452">
        <ele>527.42</ele>
        <time>2014-11-14T10:01:45Z</time>
      </trkpt>
      <trkpt lat="42.01136" lon="8.7746">
        <ele>527.9</ele>
        <time>2014-11-14T10:02:00Z</time>
      </trkpt>
      <trkpt lat="42.01137" lon="8.77463">
        <ele>529.82</ele>
        <time>2014-11-14T10:02:14Z</time>
      </trkpt>
      <trkpt lat="42.01137" lon="8.77466">
        <ele>529.82</ele>
        <time>2014-11-14T10:02:27Z</time>
      </trkpt>
      <trkpt lat="42.01136" lon="8.77475">
        <ele>531.27</ele>
        <time>2014-11-14T10:02:42Z</time>
      </trkpt>
      <trkpt lat="42.01135" lon="8.77496">
        <ele>531.27</ele>
        <time>2014-11-14T10:02:56Z</time>
      </trkpt>
      <trkpt lat="42.01134" lon="8.775">
        <ele>530.79</ele>
        <time>2014-11-14T10:03:00Z</time>
      </trkpt>
      <trkpt lat="42.01133" lon="8.77519">
        <ele>531.27</ele>
        <time>2014-11-14T10:03:12Z</time>
      </trkpt>
      <trkpt lat="42.01127" lon="8.77538">
        <ele>532.23</ele>
        <time>2014-11-14T10:03:26Z</time>
      </trkpt>
      <trkpt lat="42.0113" lon="8.77548">
        <ele>532.23</ele>
        <time>2014-11-14T10:03:36Z</time>
      </trkpt>
      <trkpt lat="42.01136" lon="8.77563">
        <ele>533.67</ele>
        <time>2014-11-14T10:03:53Z</time>
      </trkpt>
      <trkpt lat="42.01137" lon="8.77569">
        <ele>534.63</ele>
        <time>2014-11-14T10:04:06Z</time>
      </trkpt>
      <trkpt lat="42.01136" lon="8.77571">
        <ele>534.63</ele>
        <time>2014-11-14T10:04:27Z</time>
      </trkpt>
      <trkpt lat="42.01136" lon="8.77579">
        <ele>537.03</ele>
        <time>2014-11-14T10:04:39Z</time>
      </trkpt>
      <trkpt lat="42.01139" lon="8.77587">
        <ele>538.96</ele>
        <time>2014-11-14T10:04:52Z</time>
      </trkpt>
      <trkpt lat="42.0114" lon="8.77589">
        <ele>540.88</ele>
        <time>2014-11-14T10:05:07Z</time>
      </trkpt>
      <trkpt lat="42.0114" lon="8.77594">
        <ele>542.32</ele>
        <time>2014-11-14T10:05:20Z</time>
      </trkpt>
      <trkpt lat="42.01142" lon="8.77596">
        <ele>542.8</ele>
        <time>2014-11-14T10:05:35Z</time>
      </trkpt>
      <trkpt lat="42.01141" lon="8.776">
        <ele>543.76</ele>
        <time>2014-11-14T10:05:55Z</time>
      </trkpt>
      <trkpt lat="42.01142" lon="8.77601">
        <ele>543.76</ele>
        <time>2014-11-14T10:06:25Z</time>
      </trkpt>
      <trkpt lat="42.01142" lon="8.77601">
        <ele>543.76</ele>
        <time>2014-11-14T10:06:51Z</time>
      </trkpt>
      <trkpt lat="42.01142" lon="8.77601">
        <ele>544.24</ele>
        <time>2014-11-14T10:07:17Z</time>
      </trkpt>
      <trkpt lat="42.01143" lon="8.77602">
        <ele>543.76</ele>
        <time>2014-11-14T10:07:35Z</time>
      </trkpt>
      <trkpt lat="42.01143" lon="8.77602">
        <ele>544.24</ele>
        <time>2014-11-14T10:07:55Z</time>
      </trkpt>
      <trkpt lat="42.01143" lon="8.77603">
        <ele>545.69</ele>
        <time>2014-11-14T10:08:13Z</time>
      </trkpt>
      <trkpt lat="42.01146" lon="8.77613">
        <ele>547.13</ele>
        <time>2014-11-14T10:08:26Z</time>
      </trkpt>
      <trkpt lat="42.01147" lon="8.77617">
        <ele>549.53</ele>
        <time>2014-11-14T10:08:40Z</time>
      </trkpt>
      <trkpt lat="42.01152" lon="8.77623">
        <ele>551.45</ele>
        <time>2014-11-14T10:08:53Z</time>
      </trkpt>
      <trkpt lat="42.01154" lon="8.77626">
        <ele>552.41</ele>
        <time>2014-11-14T10:09:09Z</time>
      </trkpt>
      <trkpt lat="42.01159" lon="8.77631">
        <ele>553.86</ele>
        <time>2014-11-14T10:09:22Z</time>
      </trkpt>
      <trkpt lat="42.01162" lon="8.77633">
        <ele>555.78</ele>
        <time>2014-11-14T10:09:36Z</time>
      </trkpt>
      <trkpt lat="42.01163" lon="8.77634">
        <ele>557.22</ele>
        <time>2014-11-14T10:09:50Z</time>
      </trkpt>
      <trkpt lat="42.01164" lon="8.77635">
        <ele>558.66</ele>
        <time>2014-11-14T10:10:07Z</time>
      </trkpt>
      <trkpt lat="42.01164" lon="8.77639">
        <ele>559.62</ele>
        <time>2014-11-14T10:10:19Z</time>
      </trkpt>
      <trkpt lat="42.01164" lon="8.77652">
        <ele>561.07</ele>
        <time>2014-11-14T10:10:33Z</time>
      </trkpt>
      <trkpt lat="42.01158" lon="8.77673">
        <ele>562.03</ele>
        <time>2014-11-14T10:10:45Z</time>
      </trkpt>
      <trkpt lat="42.01156" lon="8.77691">
        <ele>563.47</ele>
        <time>2014-11-14T10:10:59Z</time>
      </trkpt>
      <trkpt lat="42.01156" lon="8.77704">
        <ele>564.91</ele>
        <time>2014-11-14T10:11:15Z</time>
      </trkpt>
      <trkpt lat="42.01156" lon="8.77713">
        <ele>565.87</ele>
        <time>2014-11-14T10:11:31Z</time>
      </trkpt>
      <trkpt lat="42.01155" lon="8.77725">
        <ele>567.8</ele>
        <time>2014-11-14T10:11:46Z</time>
      </trkpt>
      <trkpt lat="42.01151" lon="8.77732">
        <ele>568.76</ele>
        <time>2014-11-14T10:12:01Z</time>
      </trkpt>
      <trkpt lat="42.0115" lon="8.77733">
        <ele>568.76</ele>
        <time>2014-11-14T10:12:27Z</time>
      </trkpt>
      <trkpt lat="42.0115" lon="8.77733">
        <ele>569.24</ele>
        <time>2014-11-14T10:12:56Z</time>
      </trkpt>
      <trkpt lat="42.0115" lon="8.7774">
        <ele>570.68</ele>
        <time>2014-11-14T10:13:20Z</time>
      </trkpt>
      <trkpt lat="42.01149" lon="8.77747">
        <ele>573.08</ele>
        <time>2014-11-14T10:13:36Z</time>
      </trkpt>
      <trkpt lat="42.0115" lon="8.77754">
        <ele>574.53</ele>
        <time>2014-11-14T10:13:53Z</time>
      </trkpt>
      <trkpt lat="42.0115" lon="8.77758">
        <ele>575.97</ele>
        <time>2014-11-14T10:14:09Z</time>
      </trkpt>
      <trkpt lat="42.0115" lon="8.77763">
        <ele>577.41</ele>
        <time>2014-11-14T10:14:24Z</time>
      </trkpt>
      <trkpt lat="42.01148" lon="8.77772">
        <ele>578.85</ele>
        <time>2014-11-14T10:14:36Z</time>
      </trkpt>
      <trkpt lat="42.01144" lon="8.77777">
        <ele>579.81</ele>
        <time>2014-11-14T10:14:48Z</time>
      </trkpt>
      <trkpt lat="42.01144" lon="8.7778">
        <ele>580.77</ele>
        <time>2014-11-14T10:15:03Z</time>
      </trkpt>
      <trkpt lat="42.01144" lon="8.77782">
        <ele>581.25</ele>
        <time>2014-11-14T10:15:20Z</time>
      </trkpt>
      <trkpt lat="42.01145" lon="8.77787">
        <ele>582.7</ele>
        <time>2014-11-14T10:15:35Z</time>
      </trkpt>
      <trkpt lat="42.01146" lon="8.77794">
        <ele>585.1</ele>
        <time>2014-11-14T10:15:49Z</time>
      </trkpt>
      <trkpt lat="42.01149" lon="8.77807">
        <ele>585.1</ele>
        <time>2014-11-14T10:16:08Z</time>
      </trkpt>
      <trkpt lat="42.01152" lon="8.77813">
        <ele>585.1</ele>
        <time>2014-11-14T10:16:22Z</time>
      </trkpt>
      <trkpt lat="42.01151" lon="8.77816">
        <ele>585.1</ele>
        <time>2014-11-14T10:16:26Z</time>
      </trkpt>
      <trkpt lat="42.01152" lon="8.77832">
        <ele>586.06</ele>
        <time>2014-11-14T10:16:41Z</time>
      </trkpt>
      <trkpt lat="42.01152" lon="8.77834">
        <ele>586.06</ele>
        <time>2014-11-14T10:17:01Z</time>
      </trkpt>
      <trkpt lat="42.01151" lon="8.77848">
        <ele>587.5</ele>
        <time>2014-11-14T10:17:18Z</time>
      </trkpt>
      <trkpt lat="42.01157" lon="8.77857">
        <ele>589.43</ele>
        <time>2014-11-14T10:17:33Z</time>
      </trkpt>
      <trkpt lat="42.01161" lon="8.77865">
        <ele>591.35</ele>
        <time>2014-11-14T10:17:49Z</time>
      </trkpt>
      <trkpt lat="42.01162" lon="8.77873">
        <ele>592.79</ele>
        <time>2014-11-14T10:18:04Z</time>
      </trkpt>
      <trkpt lat="42.01163" lon="8.77885">
        <ele>595.19</ele>
        <time>2014-11-14T10:18:22Z</time>
      </trkpt>
      <trkpt lat="42.0116" lon="8.77891">
        <ele>596.64</ele>
        <time>2014-11-14T10:18:36Z</time>
      </trkpt>
      <trkpt lat="42.01159" lon="8.77894">
        <ele>596.64</ele>
        <time>2014-11-14T10:18:53Z</time>
      </trkpt>
      <trkpt lat="42.01159" lon="8.77897">
        <ele>596.15</ele>
        <time>2014-11-14T10:19:10Z</time>
      </trkpt>
      <trkpt lat="42.01159" lon="8.77898">
        <ele>597.12</ele>
        <time>2014-11-14T10:19:27Z</time>
      </trkpt>
      <trkpt lat="42.01158" lon="8.77899">
        <ele>597.12</ele>
        <time>2014-11-14T10:19:51Z</time>
      </trkpt>
      <trkpt lat="42.01158" lon="8.77899">
        <ele>597.12</ele>
        <time>2014-11-14T10:20:18Z</time>
      </trkpt>
      <trkpt lat="42.01158" lon="8.77899">
        <ele>597.12</ele>
        <time>2014-11-14T10:20:45Z</time>
      </trkpt>
      <trkpt lat="42.01157" lon="8.779">
        <ele>596.64</ele>
        <time>2014-11-14T10:21:13Z</time>
      </trkpt>
      <trkpt lat="42.01158" lon="8.779">
        <ele>597.6</ele>
        <time>2014-11-14T10:21:40Z</time>
      </trkpt>
      <trkpt lat="42.01158" lon="8.77899">
        <ele>597.6</ele>
        <time>2014-11-14T10:22:08Z</time>
      </trkpt>
      <trkpt lat="42.01158" lon="8.77899">
        <ele>597.6</ele>
        <time>2014-11-14T10:22:27Z</time>
      </trkpt>
      <trkpt lat="42.01158" lon="8.779">
        <ele>598.08</ele>
        <time>2014-11-14T10:22:55Z</time>
      </trkpt>
      <trkpt lat="42.01158" lon="8.77914">
        <ele>599.52</ele>
        <time>2014-11-14T10:23:10Z</time>
      </trkpt>
      <trkpt lat="42.01162" lon="8.77928">
        <ele>601.44</ele>
        <time>2014-11-14T10:23:27Z</time>
      </trkpt>
      <trkpt lat="42.01164" lon="8.77935">
        <ele>603.36</ele>
        <time>2014-11-14T10:23:44Z</time>
      </trkpt>
      <trkpt lat="42.01161" lon="8.7795">
        <ele>604.81</ele>
        <time>2014-11-14T10:24:01Z</time>
      </trkpt>
      <trkpt lat="42.01159" lon="8.77962">
        <ele>606.73</ele>
        <time>2014-11-14T10:24:20Z</time>
      </trkpt>
      <trkpt lat="42.01163" lon="8.77968">
        <ele>608.65</ele>
        <time>2014-11-14T10:24:36Z</time>
      </trkpt>
      <trkpt lat="42.01161" lon="8.77982">
        <ele>610.57</ele>
        <time>2014-11-14T10:24:52Z</time>
      </trkpt>
      <trkpt lat="42.01155" lon="8.77994">
        <ele>611.54</ele>
        <time>2014-11-14T10:25:06Z</time>
      </trkpt>
      <trkpt lat="42.01153" lon="8.78002">
        <ele>612.5</ele>
        <time>2014-11-14T10:25:25Z</time>
      </trkpt>
      <trkpt lat="42.01149" lon="8.7801">
        <ele>613.46</ele>
        <time>2014-11-14T10:25:40Z</time>
      </trkpt>
      <trkpt lat="42.01148" lon="8.78021">
        <ele>614.9</ele>
        <time>2014-11-14T10:25:55Z</time>
      </trkpt>
      <trkpt lat="42.0115" lon="8.78028">
        <ele>616.34</ele>
        <time>2014-11-14T10:26:10Z</time>
      </trkpt>
      <trkpt lat="42.01149" lon="8.78038">
        <ele>618.26</ele>
        <time>2014-11-14T10:26:25Z</time>
      </trkpt>
      <trkpt lat="42.01145" lon="8.78047">
        <ele>619.71</ele>
        <time>2014-11-14T10:26:40Z</time>
      </trkpt>
      <trkpt lat="42.01137" lon="8.78051">
        <ele>620.67</ele>
        <time>2014-11-14T10:26:56Z</time>
      </trkpt>
      <trkpt lat="42.01135" lon="8.7805">
        <ele>621.63</ele>
        <time>2014-11-14T10:27:07Z</time>
      </trkpt>
      <trkpt lat="42.01136" lon="8.78055">
        <ele>622.59</ele>
        <time>2014-11-14T10:27:26Z</time>
      </trkpt>
      <trkpt lat="42.01132" lon="8.78056">
        <ele>622.11</ele>
        <time>2014-11-14T10:27:41Z</time>
      </trkpt>
      <trkpt lat="42.01132" lon="8.78055">
        <ele>622.11</ele>
        <time>2014-11-14T10:28:10Z</time>
      </trkpt>
      <trkpt lat="42.01133" lon="8.78058">
        <ele>622.59</ele>
        <time>2014-11-14T10:28:27Z</time>
      </trkpt>
      <trkpt lat="42.01131" lon="8.78067">
        <ele>622.11</ele>
        <time>2014-11-14T10:28:43Z</time>
      </trkpt>
      <trkpt lat="42.01135" lon="8.78063">
        <ele>623.07</ele>
        <time>2014-11-14T10:29:04Z</time>
      </trkpt>
      <trkpt lat="42.01136" lon="8.7806">
        <ele>622.59</ele>
        <time>2014-11-14T10:29:15Z</time>
      </trkpt>
      <trkpt lat="42.01136" lon="8.7806">
        <ele>622.11</ele>
        <time>2014-11-14T10:29:55Z</time>
      </trkpt>
      <trkpt lat="42.01138" lon="8.78059">
        <ele>622.11</ele>
        <time>2014-11-14T10:30:10Z</time>
      </trkpt>
      <trkpt lat="42.01139" lon="8.78059">
        <ele>622.11</ele>
        <time>2014-11-14T10:30:28Z</time>
      </trkpt>
      <trkpt lat="42.01138" lon="8.78059">
        <ele>622.59</ele>
        <time>2014-11-14T10:30:45Z</time>
      </trkpt>
      <trkpt lat="42.01141" lon="8.78059">
        <ele>622.11</ele>
        <time>2014-11-14T10:30:47Z</time>
      </trkpt>
      <trkpt lat="42.01144" lon="8.7806">
        <ele>622.59</ele>
        <time>2014-11-14T10:30:51Z</time>
      </trkpt>
      <trkpt lat="42.01143" lon="8.78076">
        <ele>624.99</ele>
        <time>2014-11-14T10:31:06Z</time>
      </trkpt>
      <trkpt lat="42.01144" lon="8.78085">
        <ele>626.44</ele>
        <time>2014-11-14T10:31:19Z</time>
      </trkpt>
      <trkpt lat="42.01141" lon="8.78097">
        <ele>626.92</ele>
        <time>2014-11-14T10:31:35Z</time>
      </trkpt>
      <trkpt lat="42.01138" lon="8.78104">
        <ele>627.88</ele>
        <time>2014-11-14T10:31:48Z</time>
      </trkpt>
      <trkpt lat="42.01137" lon="8.78115">
        <ele>629.32</ele>
        <time>2014-11-14T10:32:03Z</time>
      </trkpt>
      <trkpt lat="42.01136" lon="8.78118">
        <ele>629.8</ele>
        <time>2014-11-14T10:32:13Z</time>
      </trkpt>
      <trkpt lat="42.01131" lon="8.78134">
        <ele>631.24</ele>
        <time>2014-11-14T10:32:29Z</time>
      </trkpt>
      <trkpt lat="42.0113" lon="8.7815">
        <ele>631.72</ele>
        <time>2014-11-14T10:32:48Z</time>
      </trkpt>
      <trkpt lat="42.0113" lon="8.78163">
        <ele>632.2</ele>
        <time>2014-11-14T10:33:03Z</time>
      </trkpt>
      <trkpt lat="42.01126" lon="8.78176">
        <ele>633.65</ele>
        <time>2014-11-14T10:33:17Z</time>
      </trkpt>
      <trkpt lat="42.01125" lon="8.78188">
        <ele>634.13</ele>
        <time>2014-11-14T10:33:31Z</time>
      </trkpt>
      <trkpt lat="42.01128" lon="8.78192">
        <ele>634.61</ele>
        <time>2014-11-14T10:33:39Z</time>
      </trkpt>
      <trkpt lat="42.01131" lon="8.78198">
        <ele>637.49</ele>
        <time>2014-11-14T10:33:55Z</time>
      </trkpt>
      <trkpt lat="42.01136" lon="8.78209">
        <ele>639.41</ele>
        <time>2014-11-14T10:34:09Z</time>
      </trkpt>
      <trkpt lat="42.01137" lon="8.78216">
        <ele>641.34</ele>
        <time>2014-11-14T10:34:25Z</time>
      </trkpt>
      <trkpt lat="42.01136" lon="8.78222">
        <ele>642.3</ele>
        <time>2014-11-14T10:34:42Z</time>
      </trkpt>
      <trkpt lat="42.01142" lon="8.78232">
        <ele>644.22</ele>
        <time>2014-11-14T10:34:56Z</time>
      </trkpt>
      <trkpt lat="42.01144" lon="8.78233">
        <ele>645.18</ele>
        <time>2014-11-14T10:35:11Z</time>
      </trkpt>
      <trkpt lat="42.01144" lon="8.78233">
        <ele>645.18</ele>
        <time>2014-11-14T10:35:33Z</time>
      </trkpt>
      <trkpt lat="42.01144" lon="8.78233">
        <ele>645.18</ele>
        <time>2014-11-14T10:35:52Z</time>
      </trkpt>
      <trkpt lat="42.01144" lon="8.78233">
        <ele>645.18</ele>
        <time>2014-11-14T10:36:18Z</time>
      </trkpt>
      <trkpt lat="42.01143" lon="8.78233">
        <ele>645.18</ele>
        <time>2014-11-14T10:36:38Z</time>
      </trkpt>
      <trkpt lat="42.01143" lon="8.78233">
        <ele>643.74</ele>
        <time>2014-11-14T10:37:04Z</time>
      </trkpt>
      <trkpt lat="42.01143" lon="8.78233">
        <ele>642.3</ele>
        <time>2014-11-14T10:37:15Z</time>
      </trkpt>
      <trkpt lat="42.01143" lon="8.78233">
        <ele>649.03</ele>
        <time>2014-11-14T10:37:16Z</time>
      </trkpt>
      <trkpt lat="42.01143" lon="8.78233">
        <ele>645.18</ele>
        <time>2014-11-14T10:37:17Z</time>
      </trkpt>
      <trkpt lat="42.01147" lon="8.78243">
        <ele>647.1</ele>
        <time>2014-11-14T10:37:37Z</time>
      </trkpt>
      <trkpt lat="42.0115" lon="8.7825">
        <ele>648.55</ele>
        <time>2014-11-14T10:37:52Z</time>
      </trkpt>
      <trkpt lat="42.01151" lon="8.78254">
        <ele>650.47</ele>
        <time>2014-11-14T10:38:08Z</time>
      </trkpt>
      <trkpt lat="42.01154" lon="8.78259">
        <ele>652.87</ele>
        <time>2014-11-14T10:38:23Z</time>
      </trkpt>
      <trkpt lat="42.01156" lon="8.78268">
        <ele>654.8</ele>
        <time>2014-11-14T10:38:37Z</time>
      </trkpt>
      <trkpt lat="42.01155" lon="8.78274">
        <ele>655.76</ele>
        <time>2014-11-14T10:38:52Z</time>
      </trkpt>
      <trkpt lat="42.01156" lon="8.78279">
        <ele>657.2</ele>
        <time>2014-11-14T10:39:06Z</time>
      </trkpt>
      <trkpt lat="42.01159" lon="8.78284">
        <ele>658.64</ele>
        <time>2014-11-14T10:39:19Z</time>
      </trkpt>
      <trkpt lat="42.01163" lon="8.78286">
        <ele>661.04</ele>
        <time>2014-11-14T10:39:39Z</time>
      </trkpt>
      <trkpt lat="42.01168" lon="8.78292">
        <ele>662.01</ele>
        <time>2014-11-14T10:39:54Z</time>
      </trkpt>
      <trkpt lat="42.01168" lon="8.78293">
        <ele>662.01</ele>
        <time>2014-11-14T10:40:25Z</time>
      </trkpt>
      <trkpt lat="42.01168" lon="8.78293">
        <ele>662.49</ele>
        <time>2014-11-14T10:40:55Z</time>
      </trkpt>
      <trkpt lat="42.01169" lon="8.78292">
        <ele>662.49</ele>
        <time>2014-11-14T10:41:23Z</time>
      </trkpt>
      <trkpt lat="42.0117" lon="8.78291">
        <ele>662.49</ele>
        <time>2014-11-14T10:41:43Z</time>
      </trkpt>
      <trkpt lat="42.01173" lon="8.78294">
        <ele>663.45</ele>
        <time>2014-11-14T10:41:59Z</time>
      </trkpt>
      <trkpt lat="42.01177" lon="8.78299">
        <ele>666.33</ele>
        <time>2014-11-14T10:42:15Z</time>
      </trkpt>
      <trkpt lat="42.01179" lon="8.78312">
        <ele>668.73</ele>
        <time>2014-11-14T10:42:31Z</time>
      </trkpt>
      <trkpt lat="42.0118" lon="8.78319">
        <ele>672.1</ele>
        <time>2014-11-14T10:42:40Z</time>
      </trkpt>
      <trkpt lat="42.0118" lon="8.78319">
        <ele>670.66</ele>
        <time>2014-11-14T10:42:41Z</time>
      </trkpt>
      <trkpt lat="42.0118" lon="8.7833">
        <ele>671.62</ele>
        <time>2014-11-14T10:42:56Z</time>
      </trkpt>
      <trkpt lat="42.01179" lon="8.78336">
        <ele>672.1</ele>
        <time>2014-11-14T10:43:02Z</time>
      </trkpt>
      <trkpt lat="42.01178" lon="8.78344">
        <ele>673.54</ele>
        <time>2014-11-14T10:43:16Z</time>
      </trkpt>
      <trkpt lat="42.01177" lon="8.78353">
        <ele>674.98</ele>
        <time>2014-11-14T10:43:27Z</time>
      </trkpt>
      <trkpt lat="42.01177" lon="8.78359">
        <ele>675.46</ele>
        <time>2014-11-14T10:43:34Z</time>
      </trkpt>
      <trkpt lat="42.01175" lon="8.78371">
        <ele>676.42</ele>
        <time>2014-11-14T10:43:47Z</time>
      </trkpt>
      <trkpt lat="42.01173" lon="8.78381">
        <ele>677.87</ele>
        <time>2014-11-14T10:44:02Z</time>
      </trkpt>
      <trkpt lat="42.01171" lon="8.7839">
        <ele>679.79</ele>
        <time>2014-11-14T10:44:20Z</time>
      </trkpt>
      <trkpt lat="42.0117" lon="8.78394">
        <ele>679.79</ele>
        <time>2014-11-14T10:44:28Z</time>
      </trkpt>
      <trkpt lat="42.01167" lon="8.784">
        <ele>680.27</ele>
        <time>2014-11-14T10:44:44Z</time>
      </trkpt>
      <trkpt lat="42.01166" lon="8.78405">
        <ele>680.75</ele>
        <time>2014-11-14T10:45:04Z</time>
      </trkpt>
      <trkpt lat="42.01163" lon="8.78412">
        <ele>681.71</ele>
        <time>2014-11-14T10:45:26Z</time>
      </trkpt>
      <trkpt lat="42.01161" lon="8.78417">
        <ele>682.67</ele>
        <time>2014-11-14T10:45:34Z</time>
      </trkpt>
      <trkpt lat="42.01156" lon="8.78428">
        <ele>682.19</ele>
        <time>2014-11-14T10:45:49Z</time>
      </trkpt>
      <trkpt lat="42.01154" lon="8.7844">
        <ele>683.63</ele>
        <time>2014-11-14T10:46:04Z</time>
      </trkpt>
      <trkpt lat="42.0115" lon="8.78448">
        <ele>685.08</ele>
        <time>2014-11-14T10:46:21Z</time>
      </trkpt>
      <trkpt lat="42.01148" lon="8.7845">
        <ele>685.56</ele>
        <time>2014-11-14T10:46:38Z</time>
      </trkpt>
      <trkpt lat="42.01146" lon="8.7845">
        <ele>685.56</ele>
        <time>2014-11-14T10:46:57Z</time>
      </trkpt>
      <trkpt lat="42.01146" lon="8.7845">
        <ele>685.08</ele>
        <time>2014-11-14T10:47:01Z</time>
      </trkpt>
      <trkpt lat="42.01141" lon="8.78449">
        <ele>685.08</ele>
        <time>2014-11-14T10:47:16Z</time>
      </trkpt>
      <trkpt lat="42.01142" lon="8.78449">
        <ele>684.6</ele>
        <time>2014-11-14T10:47:28Z</time>
      </trkpt>
      <trkpt lat="42.01137" lon="8.78454">
        <ele>686.04</ele>
        <time>2014-11-14T10:47:35Z</time>
      </trkpt>
      <trkpt lat="42.01133" lon="8.78458">
        <ele>687</ele>
        <time>2014-11-14T10:47:40Z</time>
      </trkpt>
      <trkpt lat="42.01125" lon="8.78466">
        <ele>688.44</ele>
        <time>2014-11-14T10:47:59Z</time>
      </trkpt>
      <trkpt lat="42.01116" lon="8.78476">
        <ele>687.96</ele>
        <time>2014-11-14T10:48:14Z</time>
      </trkpt>
      <trkpt lat="42.01113" lon="8.78479">
        <ele>687.96</ele>
        <time>2014-11-14T10:48:28Z</time>
      </trkpt>
      <trkpt lat="42.01107" lon="8.78485">
        <ele>687</ele>
        <time>2014-11-14T10:48:41Z</time>
      </trkpt>
      <trkpt lat="42.01099" lon="8.78498">
        <ele>686.52</ele>
        <time>2014-11-14T10:48:58Z</time>
      </trkpt>
      <trkpt lat="42.01096" lon="8.7851">
        <ele>687</ele>
        <time>2014-11-14T10:49:14Z</time>
      </trkpt>
      <trkpt lat="42.01094" lon="8.78517">
        <ele>687</ele>
        <time>2014-11-14T10:49:27Z</time>
      </trkpt>
      <trkpt lat="42.01093" lon="8.78539">
        <ele>687.96</ele>
        <time>2014-11-14T10:49:49Z</time>
      </trkpt>
      <trkpt lat="42.01091" lon="8.78551">
        <ele>687.96</ele>
        <time>2014-11-14T10:50:01Z</time>
      </trkpt>
      <trkpt lat="42.0109" lon="8.78569">
        <ele>687.48</ele>
        <time>2014-11-14T10:50:17Z</time>
      </trkpt>
      <trkpt lat="42.0109" lon="8.78583">
        <ele>687</ele>
        <time>2014-11-14T10:50:33Z</time>
      </trkpt>
      <trkpt lat="42.0109" lon="8.78597">
        <ele>687.48</ele>
        <time>2014-11-14T10:50:48Z</time>
      </trkpt>
      <trkpt lat="42.01086" lon="8.7861">
        <ele>687.48</ele>
        <time>2014-11-14T10:51:04Z</time>
      </trkpt>
      <trkpt lat="42.01086" lon="8.78611">
        <ele>687.48</ele>
        <time>2014-11-14T10:51:13Z</time>
      </trkpt>
      <trkpt lat="42.01086" lon="8.78616">
        <ele>687.48</ele>
        <time>2014-11-14T10:51:17Z</time>
      </trkpt>
      <trkpt lat="42.01083" lon="8.78632">
        <ele>687.96</ele>
        <time>2014-11-14T10:51:29Z</time>
      </trkpt>
      <trkpt lat="42.01083" lon="8.78636">
        <ele>687.96</ele>
        <time>2014-11-14T10:51:45Z</time>
      </trkpt>
      <trkpt lat="42.01082" lon="8.78653">
        <ele>687.96</ele>
        <time>2014-11-14T10:52:01Z</time>
      </trkpt>
      <trkpt lat="42.01081" lon="8.78666">
        <ele>687.48</ele>
        <time>2014-11-14T10:52:17Z</time>
      </trkpt>
      <trkpt lat="42.01081" lon="8.7867">
        <ele>687.48</ele>
        <time>2014-11-14T10:52:31Z</time>
      </trkpt>
      <trkpt lat="42.0108" lon="8.78679">
        <ele>687.48</ele>
        <time>2014-11-14T10:52:45Z</time>
      </trkpt>
      <trkpt lat="42.01075" lon="8.78702">
        <ele>687.48</ele>
        <time>2014-11-14T10:53:01Z</time>
      </trkpt>
      <trkpt lat="42.01074" lon="8.78711">
        <ele>688.92</ele>
        <time>2014-11-14T10:53:17Z</time>
      </trkpt>
      <trkpt lat="42.01072" lon="8.78727">
        <ele>688.92</ele>
        <time>2014-11-14T10:53:31Z</time>
      </trkpt>
      <trkpt lat="42.01071" lon="8.78746">
        <ele>689.88</ele>
        <time>2014-11-14T10:53:46Z</time>
      </trkpt>
      <trkpt lat="42.01072" lon="8.78758">
        <ele>689.4</ele>
        <time>2014-11-14T10:53:59Z</time>
      </trkpt>
      <trkpt lat="42.01072" lon="8.78772">
        <ele>689.88</ele>
        <time>2014-11-14T10:54:13Z</time>
      </trkpt>
      <trkpt lat="42.0107" lon="8.78788">
        <ele>690.84</ele>
        <time>2014-11-14T10:54:29Z</time>
      </trkpt>
      <trkpt lat="42.01067" lon="8.78794">
        <ele>690.84</ele>
        <time>2014-11-14T10:54:35Z</time>
      </trkpt>
      <trkpt lat="42.01064" lon="8.78809">
        <ele>691.33</ele>
        <time>2014-11-14T10:54:48Z</time>
      </trkpt>
      <trkpt lat="42.01063" lon="8.78824">
        <ele>691.81</ele>
        <time>2014-11-14T10:55:03Z</time>
      </trkpt>
      <trkpt lat="42.01061" lon="8.78842">
        <ele>692.29</ele>
        <time>2014-11-14T10:55:18Z</time>
      </trkpt>
      <trkpt lat="42.01059" lon="8.7885">
        <ele>692.29</ele>
        <time>2014-11-14T10:55:25Z</time>
      </trkpt>
      <trkpt lat="42.01054" lon="8.78867">
        <ele>692.77</ele>
        <time>2014-11-14T10:55:42Z</time>
      </trkpt>
      <trkpt lat="42.01051" lon="8.78881">
        <ele>693.73</ele>
        <time>2014-11-14T10:55:57Z</time>
      </trkpt>
      <trkpt lat="42.0105" lon="8.78883">
        <ele>693.25</ele>
        <time>2014-11-14T10:56:03Z</time>
      </trkpt>
      <trkpt lat="42.01048" lon="8.78895">
        <ele>693.25</ele>
        <time>2014-11-14T10:56:12Z</time>
      </trkpt>
      <trkpt lat="42.01042" lon="8.78907">
        <ele>692.77</ele>
        <time>2014-11-14T10:56:26Z</time>
      </trkpt>
      <trkpt lat="42.01043" lon="8.7891">
        <ele>693.25</ele>
        <time>2014-11-14T10:56:38Z</time>
      </trkpt>
      <trkpt lat="42.01044" lon="8.7891">
        <ele>693.25</ele>
        <time>2014-11-14T10:56:52Z</time>
      </trkpt>
      <trkpt lat="42.01043" lon="8.78909">
        <ele>693.25</ele>
        <time>2014-11-14T10:57:11Z</time>
      </trkpt>
      <trkpt lat="42.01043" lon="8.78909">
        <ele>693.25</ele>
        <time>2014-11-14T10:57:30Z</time>
      </trkpt>
      <trkpt lat="42.01043" lon="8.78909">
        <ele>693.73</ele>
        <time>2014-11-14T10:57:55Z</time>
      </trkpt>
      <trkpt lat="42.01043" lon="8.78909">
        <ele>693.73</ele>
        <time>2014-11-14T10:58:13Z</time>
      </trkpt>
      <trkpt lat="42.01041" lon="8.78915">
        <ele>693.25</ele>
        <time>2014-11-14T10:58:29Z</time>
      </trkpt>
      <trkpt lat="42.01043" lon="8.78938">
        <ele>691.81</ele>
        <time>2014-11-14T10:58:46Z</time>
      </trkpt>
      <trkpt lat="42.01042" lon="8.7895">
        <ele>691.33</ele>
        <time>2014-11-14T10:59:02Z</time>
      </trkpt>
      <trkpt lat="42.01043" lon="8.78959">
        <ele>689.88</ele>
        <time>2014-11-14T10:59:16Z</time>
      </trkpt>
      <trkpt lat="42.01049" lon="8.7897">
        <ele>689.4</ele>
        <time>2014-11-14T10:59:30Z</time>
      </trkpt>
      <trkpt lat="42.01053" lon="8.78975">
        <ele>689.4</ele>
        <time>2014-11-14T10:59:44Z</time>
      </trkpt>
      <trkpt lat="42.01054" lon="8.78979">
        <ele>689.4</ele>
        <time>2014-11-14T10:59:56Z</time>
      </trkpt>
      <trkpt lat="42.01053" lon="8.78989">
        <ele>689.4</ele>
        <time>2014-11-14T11:00:14Z</time>
      </trkpt>
      <trkpt lat="42.01052" lon="8.78998">
        <ele>689.88</ele>
        <time>2014-11-14T11:00:36Z</time>
      </trkpt>
      <trkpt lat="42.01054" lon="8.79009">
        <ele>689.88</ele>
        <time>2014-11-14T11:00:56Z</time>
      </trkpt>
      <trkpt lat="42.01054" lon="8.79014">
        <ele>689.88</ele>
        <time>2014-11-14T11:01:10Z</time>
      </trkpt>
      <trkpt lat="42.01055" lon="8.79018">
        <ele>689.88</ele>
        <time>2014-11-14T11:01:29Z</time>
      </trkpt>
      <trkpt lat="42.01055" lon="8.79023">
        <ele>689.88</ele>
        <time>2014-11-14T11:01:32Z</time>
      </trkpt>
      <trkpt lat="42.01055" lon="8.79027">
        <ele>690.84</ele>
        <time>2014-11-14T11:01:35Z</time>
      </trkpt>
      <trkpt lat="42.01054" lon="8.79036">
        <ele>689.4</ele>
        <time>2014-11-14T11:01:51Z</time>
      </trkpt>
      <trkpt lat="42.01054" lon="8.79042">
        <ele>688.92</ele>
        <time>2014-11-14T11:02:12Z</time>
      </trkpt>
      <trkpt lat="42.01053" lon="8.7905">
        <ele>688.44</ele>
        <time>2014-11-14T11:02:28Z</time>
      </trkpt>
      <trkpt lat="42.01049" lon="8.79063">
        <ele>688.92</ele>
        <time>2014-11-14T11:02:40Z</time>
      </trkpt>
      <trkpt lat="42.01048" lon="8.79071">
        <ele>688.92</ele>
        <time>2014-11-14T11:02:55Z</time>
      </trkpt>
      <trkpt lat="42.01049" lon="8.79072">
        <ele>689.4</ele>
        <time>2014-11-14T11:03:08Z</time>
      </trkpt>
      <trkpt lat="42.01046" lon="8.79085">
        <ele>689.4</ele>
        <time>2014-11-14T11:03:22Z</time>
      </trkpt>
      <trkpt lat="42.01046" lon="8.79097">
        <ele>688.92</ele>
        <time>2014-11-14T11:03:32Z</time>
      </trkpt>
      <trkpt lat="42.01044" lon="8.79104">
        <ele>688.44</ele>
        <time>2014-11-14T11:03:38Z</time>
      </trkpt>
      <trkpt lat="42.01038" lon="8.79124">
        <ele>688.92</ele>
        <time>2014-11-14T11:03:53Z</time>
      </trkpt>
      <trkpt lat="42.01036" lon="8.79137">
        <ele>689.4</ele>
        <time>2014-11-14T11:04:06Z</time>
      </trkpt>
      <trkpt lat="42.01036" lon="8.79146">
        <ele>688.92</ele>
        <time>2014-11-14T11:04:20Z</time>
      </trkpt>
      <trkpt lat="42.01034" lon="8.7915">
        <ele>687.96</ele>
        <time>2014-11-14T11:04:36Z</time>
      </trkpt>
      <trkpt lat="42.01033" lon="8.79149">
        <ele>687.96</ele>
        <time>2014-11-14T11:04:51Z</time>
      </trkpt>
      <trkpt lat="42.01031" lon="8.79154">
        <ele>687.48</ele>
        <time>2014-11-14T11:04:59Z</time>
      </trkpt>
      <trkpt lat="42.01028" lon="8.79171">
        <ele>686.52</ele>
        <time>2014-11-14T11:05:14Z</time>
      </trkpt>
      <trkpt lat="42.01027" lon="8.79177">
        <ele>686.52</ele>
        <time>2014-11-14T11:05:29Z</time>
      </trkpt>
      <trkpt lat="42.01027" lon="8.7918">
        <ele>686.52</ele>
        <time>2014-11-14T11:05:41Z</time>
      </trkpt>
      <trkpt lat="42.01026" lon="8.79187">
        <ele>685.08</ele>
        <time>2014-11-14T11:05:55Z</time>
      </trkpt>
      <trkpt lat="42.01024" lon="8.79193">
        <ele>684.12</ele>
        <time>2014-11-14T11:06:08Z</time>
      </trkpt>
      <trkpt lat="42.01023" lon="8.79198">
        <ele>684.12</ele>
        <time>2014-11-14T11:06:21Z</time>
      </trkpt>
      <trkpt lat="42.01021" lon="8.79201">
        <ele>683.63</ele>
        <time>2014-11-14T11:06:37Z</time>
      </trkpt>
      <trkpt lat="42.01019" lon="8.79208">
        <ele>683.15</ele>
        <time>2014-11-14T11:06:52Z</time>
      </trkpt>
      <trkpt lat="42.01017" lon="8.79214">
        <ele>683.15</ele>
        <time>2014-11-14T11:07:08Z</time>
      </trkpt>
      <trkpt lat="42.01014" lon="8.7922">
        <ele>683.15</ele>
        <time>2014-11-14T11:07:20Z</time>
      </trkpt>
      <trkpt lat="42.01012" lon="8.79224">
        <ele>683.15</ele>
        <time>2014-11-14T11:07:34Z</time>
      </trkpt>
      <trkpt lat="42.01004" lon="8.79232">
        <ele>681.71</ele>
        <time>2014-11-14T11:07:48Z</time>
      </trkpt>
      <trkpt lat="42.00997" lon="8.7924">
        <ele>681.71</ele>
        <time>2014-11-14T11:08:04Z</time>
      </trkpt>
      <trkpt lat="42.00994" lon="8.79244">
        <ele>681.23</ele>
        <time>2014-11-14T11:08:20Z</time>
      </trkpt>
      <trkpt lat="42.00992" lon="8.79247">
        <ele>681.23</ele>
        <time>2014-11-14T11:08:34Z</time>
      </trkpt>
      <trkpt lat="42.00989" lon="8.79252">
        <ele>681.23</ele>
        <time>2014-11-14T11:08:48Z</time>
      </trkpt>
      <trkpt lat="42.00989" lon="8.79252">
        <ele>680.27</ele>
        <time>2014-11-14T11:09:06Z</time>
      </trkpt>
      <trkpt lat="42.00988" lon="8.79249">
        <ele>681.71</ele>
        <time>2014-11-14T11:09:35Z</time>
      </trkpt>
      <trkpt lat="42.00986" lon="8.79248">
        <ele>680.75</ele>
        <time>2014-11-14T11:09:47Z</time>
      </trkpt>
      <trkpt lat="42.00979" lon="8.79251">
        <ele>681.23</ele>
        <time>2014-11-14T11:10:01Z</time>
      </trkpt>
      <trkpt lat="42.00974" lon="8.79247">
        <ele>680.75</ele>
        <time>2014-11-14T11:10:15Z</time>
      </trkpt>
      <trkpt lat="42.00973" lon="8.79246">
        <ele>680.75</ele>
        <time>2014-11-14T11:10:33Z</time>
      </trkpt>
      <trkpt lat="42.00972" lon="8.79245">
        <ele>680.75</ele>
        <time>2014-11-14T11:10:52Z</time>
      </trkpt>
      <trkpt lat="42.00972" lon="8.79245">
        <ele>681.71</ele>
        <time>2014-11-14T11:11:07Z</time>
      </trkpt>
      <trkpt lat="42.00971" lon="8.79245">
        <ele>680.75</ele>
        <time>2014-11-14T11:11:33Z</time>
      </trkpt>
      <trkpt lat="42.00972" lon="8.79244">
        <ele>681.23</ele>
        <time>2014-11-14T11:12:07Z</time>
      </trkpt>
      <trkpt lat="42.00971" lon="8.79244">
        <ele>681.23</ele>
        <time>2014-11-14T11:12:42Z</time>
      </trkpt>
      <trkpt lat="42.00971" lon="8.79244">
        <ele>680.75</ele>
        <time>2014-11-14T11:13:00Z</time>
      </trkpt>
      <trkpt lat="42.0097" lon="8.79243">
        <ele>680.27</ele>
        <time>2014-11-14T11:13:13Z</time>
      </trkpt>
      <trkpt lat="42.0097" lon="8.79243">
        <ele>680.27</ele>
        <time>2014-11-14T11:13:34Z</time>
      </trkpt>
      <trkpt lat="42.0097" lon="8.79242">
        <ele>680.27</ele>
        <time>2014-11-14T11:14:07Z</time>
      </trkpt>
      <trkpt lat="42.00969" lon="8.79242">
        <ele>680.75</ele>
        <time>2014-11-14T11:14:30Z</time>
      </trkpt>
      <trkpt lat="42.00972" lon="8.79248">
        <ele>681.71</ele>
        <time>2014-11-14T11:14:43Z</time>
      </trkpt>
      <trkpt lat="42.00976" lon="8.79261">
        <ele>683.15</ele>
        <time>2014-11-14T11:14:57Z</time>
      </trkpt>
      <trkpt lat="42.00975" lon="8.79263">
        <ele>683.63</ele>
        <time>2014-11-14T11:14:59Z</time>
      </trkpt>
      <trkpt lat="42.00972" lon="8.79268">
        <ele>684.12</ele>
        <time>2014-11-14T11:15:04Z</time>
      </trkpt>
      <trkpt lat="42.00969" lon="8.79272">
        <ele>684.12</ele>
        <time>2014-11-14T11:15:10Z</time>
      </trkpt>
      <trkpt lat="42.00969" lon="8.79274">
        <ele>684.12</ele>
        <time>2014-11-14T11:15:19Z</time>
      </trkpt>
      <trkpt lat="42.00968" lon="8.79277">
        <ele>684.12</ele>
        <time>2014-11-14T11:15:23Z</time>
      </trkpt>
      <trkpt lat="42.00964" lon="8.79285">
        <ele>683.63</ele>
        <time>2014-11-14T11:15:34Z</time>
      </trkpt>
      <trkpt lat="42.00961" lon="8.79289">
        <ele>684.6</ele>
        <time>2014-11-14T11:15:45Z</time>
      </trkpt>
      <trkpt lat="42.00959" lon="8.79292">
        <ele>684.12</ele>
        <time>2014-11-14T11:15:58Z</time>
      </trkpt>
      <trkpt lat="42.00956" lon="8.79295">
        <ele>684.12</ele>
        <time>2014-11-14T11:16:14Z</time>
      </trkpt>
      <trkpt lat="42.00949" lon="8.79299">
        <ele>684.12</ele>
        <time>2014-11-14T11:16:26Z</time>
      </trkpt>
      <trkpt lat="42.00948" lon="8.793">
        <ele>683.15</ele>
        <time>2014-11-14T11:16:37Z</time>
      </trkpt>
      <trkpt lat="42.00942" lon="8.793">
        <ele>682.67</ele>
        <time>2014-11-14T11:16:48Z</time>
      </trkpt>
      <trkpt lat="42.00941" lon="8.79301">
        <ele>682.19</ele>
        <time>2014-11-14T11:16:54Z</time>
      </trkpt>
      <trkpt lat="42.00936" lon="8.79302">
        <ele>682.19</ele>
        <time>2014-11-14T11:17:08Z</time>
      </trkpt>
      <trkpt lat="42.0093" lon="8.79303">
        <ele>682.67</ele>
        <time>2014-11-14T11:17:20Z</time>
      </trkpt>
      <trkpt lat="42.00925" lon="8.79303">
        <ele>682.19</ele>
        <time>2014-11-14T11:17:30Z</time>
      </trkpt>
      <trkpt lat="42.00921" lon="8.79304">
        <ele>682.67</ele>
        <time>2014-11-14T11:17:41Z</time>
      </trkpt>
      <trkpt lat="42.00918" lon="8.79305">
        <ele>683.15</ele>
        <time>2014-11-14T11:17:49Z</time>
      </trkpt>
      <trkpt lat="42.00914" lon="8.79311">
        <ele>684.6</ele>
        <time>2014-11-14T11:18:00Z</time>
      </trkpt>
      <trkpt lat="42.00913" lon="8.79314">
        <ele>685.08</ele>
        <time>2014-11-14T11:18:13Z</time>
      </trkpt>
      <trkpt lat="42.00912" lon="8.79316">
        <ele>685.08</ele>
        <time>2014-11-14T11:18:26Z</time>
      </trkpt>
      <trkpt lat="42.00911" lon="8.79318">
        <ele>684.6</ele>
        <time>2014-11-14T11:18:29Z</time>
      </trkpt>
      <trkpt lat="42.00909" lon="8.79323">
        <ele>684.6</ele>
        <time>2014-11-14T11:18:32Z</time>
      </trkpt>
      <trkpt lat="42.00907" lon="8.79331">
        <ele>684.6</ele>
        <time>2014-11-14T11:18:48Z</time>
      </trkpt>
      <trkpt lat="42.00906" lon="8.79333">
        <ele>685.08</ele>
        <time>2014-11-14T11:18:51Z</time>
      </trkpt>
      <trkpt lat="42.00902" lon="8.79339">
        <ele>685.08</ele>
        <time>2014-11-14T11:18:56Z</time>
      </trkpt>
      <trkpt lat="42.00897" lon="8.79346">
        <ele>685.08</ele>
        <time>2014-11-14T11:19:10Z</time>
      </trkpt>
      <trkpt lat="42.00893" lon="8.79351">
        <ele>685.08</ele>
        <time>2014-11-14T11:19:16Z</time>
      </trkpt>
      <trkpt lat="42.00882" lon="8.79362">
        <ele>684.6</ele>
        <time>2014-11-14T11:19:28Z</time>
      </trkpt>
      <trkpt lat="42.0088" lon="8.79365">
        <ele>685.08</ele>
        <time>2014-11-14T11:19:35Z</time>
      </trkpt>
      <trkpt lat="42.00875" lon="8.79369">
        <ele>685.56</ele>
        <time>2014-11-14T11:19:42Z</time>
      </trkpt>
      <trkpt lat="42.00864" lon="8.79376">
        <ele>685.08</ele>
        <time>2014-11-14T11:19:54Z</time>
      </trkpt>
      <trkpt lat="42.00863" lon="8.79378">
        <ele>685.56</ele>
        <time>2014-11-14T11:19:56Z</time>
      </trkpt>
      <trkpt lat="42.00856" lon="8.79382">
        <ele>684.6</ele>
        <time>2014-11-14T11:20:08Z</time>
      </trkpt>
      <trkpt lat="42.00855" lon="8.79382">
        <ele>684.6</ele>
        <time>2014-11-14T11:20:10Z</time>
      </trkpt>
      <trkpt lat="42.00848" lon="8.79386">
        <ele>684.6</ele>
        <time>2014-11-14T11:20:17Z</time>
      </trkpt>
      <trkpt lat="42.00847" lon="8.79389">
        <ele>684.6</ele>
        <time>2014-11-14T11:20:22Z</time>
      </trkpt>
      <trkpt lat="42.00844" lon="8.7939">
        <ele>684.6</ele>
        <time>2014-11-14T11:20:25Z</time>
      </trkpt>
      <trkpt lat="42.00837" lon="8.79401">
        <ele>684.6</ele>
        <time>2014-11-14T11:20:37Z</time>
      </trkpt>
      <trkpt lat="42.00832" lon="8.79409">
        <ele>684.12</ele>
        <time>2014-11-14T11:20:49Z</time>
      </trkpt>
      <trkpt lat="42.00833" lon="8.79409">
        <ele>683.63</ele>
        <time>2014-11-14T11:21:06Z</time>
      </trkpt>
      <trkpt lat="42.00827" lon="8.79416">
        <ele>683.15</ele>
        <time>2014-11-14T11:21:13Z</time>
      </trkpt>
      <trkpt lat="42.0082" lon="8.79426">
        <ele>682.19</ele>
        <time>2014-11-14T11:21:20Z</time>
      </trkpt>
      <trkpt lat="42.00808" lon="8.79439">
        <ele>681.71</ele>
        <time>2014-11-14T11:21:33Z</time>
      </trkpt>
      <trkpt lat="42.00805" lon="8.79445">
        <ele>681.23</ele>
        <time>2014-11-14T11:21:37Z</time>
      </trkpt>
      <trkpt lat="42.008" lon="8.7945">
        <ele>681.71</ele>
        <time>2014-11-14T11:21:41Z</time>
      </trkpt>
      <trkpt lat="42.00799" lon="8.79452">
        <ele>681.23</ele>
        <time>2014-11-14T11:21:43Z</time>
      </trkpt>
      <trkpt lat="42.00788" lon="8.79461">
        <ele>681.71</ele>
        <time>2014-11-14T11:21:54Z</time>
      </trkpt>
      <trkpt lat="42.00785" lon="8.79464">
        <ele>682.19</ele>
        <time>2014-11-14T11:21:57Z</time>
      </trkpt>
      <trkpt lat="42.0078" lon="8.79466">
        <ele>681.71</ele>
        <time>2014-11-14T11:22:01Z</time>
      </trkpt>
      <trkpt lat="42.00778" lon="8.79468">
        <ele>681.71</ele>
        <time>2014-11-14T11:22:03Z</time>
      </trkpt>
      <trkpt lat="42.00773" lon="8.79475">
        <ele>681.23</ele>
        <time>2014-11-14T11:22:11Z</time>
      </trkpt>
      <trkpt lat="42.00772" lon="8.79479">
        <ele>681.71</ele>
        <time>2014-11-14T11:22:14Z</time>
      </trkpt>
      <trkpt lat="42.0077" lon="8.7948">
        <ele>681.71</ele>
        <time>2014-11-14T11:22:16Z</time>
      </trkpt>
      <trkpt lat="42.00766" lon="8.79485">
        <ele>682.19</ele>
        <time>2014-11-14T11:22:22Z</time>
      </trkpt>
      <trkpt lat="42.00762" lon="8.79488">
        <ele>681.71</ele>
        <time>2014-11-14T11:22:26Z</time>
      </trkpt>
      <trkpt lat="42.00755" lon="8.79501">
        <ele>682.19</ele>
        <time>2014-11-14T11:22:39Z</time>
      </trkpt>
      <trkpt lat="42.00754" lon="8.79501">
        <ele>682.19</ele>
        <time>2014-11-14T11:22:40Z</time>
      </trkpt>
      <trkpt lat="42.00752" lon="8.79502">
        <ele>681.71</ele>
        <time>2014-11-14T11:22:42Z</time>
      </trkpt>
      <trkpt lat="42.0075" lon="8.79507">
        <ele>681.71</ele>
        <time>2014-11-14T11:22:48Z</time>
      </trkpt>
      <trkpt lat="42.00747" lon="8.79514">
        <ele>682.19</ele>
        <time>2014-11-14T11:22:59Z</time>
      </trkpt>
      <trkpt lat="42.00741" lon="8.79524">
        <ele>681.71</ele>
        <time>2014-11-14T11:23:11Z</time>
      </trkpt>
      <trkpt lat="42.00734" lon="8.79536">
        <ele>682.19</ele>
        <time>2014-11-14T11:23:22Z</time>
      </trkpt>
      <trkpt lat="42.0073" lon="8.79542">
        <ele>682.19</ele>
        <time>2014-11-14T11:23:29Z</time>
      </trkpt>
      <trkpt lat="42.00729" lon="8.79545">
        <ele>682.19</ele>
        <time>2014-11-14T11:23:32Z</time>
      </trkpt>
      <trkpt lat="42.00721" lon="8.79556">
        <ele>683.15</ele>
        <time>2014-11-14T11:23:45Z</time>
      </trkpt>
      <trkpt lat="42.00719" lon="8.79559">
        <ele>683.63</ele>
        <time>2014-11-14T11:23:49Z</time>
      </trkpt>
      <trkpt lat="42.00712" lon="8.79567">
        <ele>683.63</ele>
        <time>2014-11-14T11:24:00Z</time>
      </trkpt>
      <trkpt lat="42.007" lon="8.79575">
        <ele>684.12</ele>
        <time>2014-11-14T11:24:14Z</time>
      </trkpt>
      <trkpt lat="42.00696" lon="8.79579">
        <ele>684.12</ele>
        <time>2014-11-14T11:24:21Z</time>
      </trkpt>
      <trkpt lat="42.00687" lon="8.79588">
        <ele>685.08</ele>
        <time>2014-11-14T11:24:33Z</time>
      </trkpt>
      <trkpt lat="42.00685" lon="8.79589">
        <ele>685.08</ele>
        <time>2014-11-14T11:24:35Z</time>
      </trkpt>
      <trkpt lat="42.00682" lon="8.79594">
        <ele>685.56</ele>
        <time>2014-11-14T11:24:40Z</time>
      </trkpt>
      <trkpt lat="42.00673" lon="8.79608">
        <ele>686.04</ele>
        <time>2014-11-14T11:24:54Z</time>
      </trkpt>
      <trkpt lat="42.00665" lon="8.79617">
        <ele>686.52</ele>
        <time>2014-11-14T11:25:07Z</time>
      </trkpt>
      <trkpt lat="42.00661" lon="8.79623">
        <ele>686.52</ele>
        <time>2014-11-14T11:25:18Z</time>
      </trkpt>
      <trkpt lat="42.0066" lon="8.79623">
        <ele>686.52</ele>
        <time>2014-11-14T11:25:22Z</time>
      </trkpt>
      <trkpt lat="42.00657" lon="8.79624">
        <ele>686.52</ele>
        <time>2014-11-14T11:25:25Z</time>
      </trkpt>
      <trkpt lat="42.00653" lon="8.79623">
        <ele>686.52</ele>
        <time>2014-11-14T11:25:30Z</time>
      </trkpt>
      <trkpt lat="42.0065" lon="8.79624">
        <ele>686.52</ele>
        <time>2014-11-14T11:25:33Z</time>
      </trkpt>
      <trkpt lat="42.00639" lon="8.7963">
        <ele>687</ele>
        <time>2014-11-14T11:25:46Z</time>
      </trkpt>
      <trkpt lat="42.00639" lon="8.79633">
        <ele>686.52</ele>
        <time>2014-11-14T11:25:59Z</time>
      </trkpt>
      <trkpt lat="42.0064" lon="8.79633">
        <ele>686.04</ele>
        <time>2014-11-14T11:26:07Z</time>
      </trkpt>
      <trkpt lat="42.0064" lon="8.79631">
        <ele>686.04</ele>
        <time>2014-11-14T11:26:09Z</time>
      </trkpt>
      <trkpt lat="42.00638" lon="8.79627">
        <ele>686.52</ele>
        <time>2014-11-14T11:26:21Z</time>
      </trkpt>
      <trkpt lat="42.00638" lon="8.79625">
        <ele>687</ele>
        <time>2014-11-14T11:26:48Z</time>
      </trkpt>
      <trkpt lat="42.00635" lon="8.79624">
        <ele>687.48</ele>
        <time>2014-11-14T11:27:02Z</time>
      </trkpt>
      <trkpt lat="42.00629" lon="8.79619">
        <ele>688.44</ele>
        <time>2014-11-14T11:27:14Z</time>
      </trkpt>
      <trkpt lat="42.00624" lon="8.79614">
        <ele>689.4</ele>
        <time>2014-11-14T11:27:25Z</time>
      </trkpt>
      <trkpt lat="42.00617" lon="8.79609">
        <ele>690.84</ele>
        <time>2014-11-14T11:27:37Z</time>
      </trkpt>
      <trkpt lat="42.00613" lon="8.79604">
        <ele>691.81</ele>
        <time>2014-11-14T11:27:50Z</time>
      </trkpt>
      <trkpt lat="42.00606" lon="8.79601">
        <ele>693.73</ele>
        <time>2014-11-14T11:28:04Z</time>
      </trkpt>
      <trkpt lat="42.00602" lon="8.796">
        <ele>695.17</ele>
        <time>2014-11-14T11:28:17Z</time>
      </trkpt>
      <trkpt lat="42.00596" lon="8.79598">
        <ele>697.09</ele>
        <time>2014-11-14T11:28:28Z</time>
      </trkpt>
      <trkpt lat="42.00595" lon="8.79599">
        <ele>697.09</ele>
        <time>2014-11-14T11:28:41Z</time>
      </trkpt>
      <trkpt lat="42.00594" lon="8.796">
        <ele>696.61</ele>
        <time>2014-11-14T11:29:10Z</time>
      </trkpt>
      <trkpt lat="42.00594" lon="8.796">
        <ele>696.61</ele>
        <time>2014-11-14T11:29:23Z</time>
      </trkpt>
      <trkpt lat="42.00593" lon="8.79597">
        <ele>696.61</ele>
        <time>2014-11-14T11:29:26Z</time>
      </trkpt>
      <trkpt lat="42.00584" lon="8.79581">
        <ele>700.46</ele>
        <time>2014-11-14T11:29:41Z</time>
      </trkpt>
      <trkpt lat="42.00574" lon="8.79558">
        <ele>702.38</ele>
        <time>2014-11-14T11:30:00Z</time>
      </trkpt>
      <trkpt lat="42.00558" lon="8.7954">
        <ele>702.38</ele>
        <time>2014-11-14T11:30:21Z</time>
      </trkpt>
      <trkpt lat="42.00556" lon="8.79537">
        <ele>702.38</ele>
        <time>2014-11-14T11:30:24Z</time>
      </trkpt>
      <trkpt lat="42.00555" lon="8.79534">
        <ele>702.38</ele>
        <time>2014-11-14T11:30:26Z</time>
      </trkpt>
      <trkpt lat="42.00538" lon="8.79529">
        <ele>702.86</ele>
        <time>2014-11-14T11:30:44Z</time>
      </trkpt>
      <trkpt lat="42.00529" lon="8.79523">
        <ele>704.3</ele>
        <time>2014-11-14T11:31:01Z</time>
      </trkpt>
      <trkpt lat="42.00523" lon="8.79525">
        <ele>704.3</ele>
        <time>2014-11-14T11:31:18Z</time>
      </trkpt>
      <trkpt lat="42.00522" lon="8.7953">
        <ele>704.3</ele>
        <time>2014-11-14T11:31:29Z</time>
      </trkpt>
      <trkpt lat="42.00519" lon="8.79533">
        <ele>704.3</ele>
        <time>2014-11-14T11:31:42Z</time>
      </trkpt>
      <trkpt lat="42.00523" lon="8.79529">
        <ele>704.3</ele>
        <time>2014-11-14T11:32:03Z</time>
      </trkpt>
      <trkpt lat="42.00524" lon="8.7953">
        <ele>704.3</ele>
        <time>2014-11-14T11:32:04Z</time>
      </trkpt>
      <trkpt lat="42.00525" lon="8.79532">
        <ele>704.78</ele>
        <time>2014-11-14T11:32:14Z</time>
      </trkpt>
      <trkpt lat="42.00528" lon="8.79525">
        <ele>704.78</ele>
        <time>2014-11-14T11:32:25Z</time>
      </trkpt>
      <trkpt lat="42.0053" lon="8.79521">
        <ele>704.3</ele>
        <time>2014-11-14T11:32:35Z</time>
      </trkpt>
      <trkpt lat="42.00529" lon="8.79513">
        <ele>703.82</ele>
        <time>2014-11-14T11:32:50Z</time>
      </trkpt>
      <trkpt lat="42.00528" lon="8.79513">
        <ele>703.82</ele>
        <time>2014-11-14T11:33:07Z</time>
      </trkpt>
      <trkpt lat="42.00528" lon="8.79515">
        <ele>703.82</ele>
        <time>2014-11-14T11:33:32Z</time>
      </trkpt>
      <trkpt lat="42.00526" lon="8.79519">
        <ele>703.82</ele>
        <time>2014-11-14T11:33:46Z</time>
      </trkpt>
      <trkpt lat="42.00526" lon="8.79521">
        <ele>703.82</ele>
        <time>2014-11-14T11:33:50Z</time>
      </trkpt>
      <trkpt lat="42.00522" lon="8.7953">
        <ele>703.82</ele>
        <time>2014-11-14T11:34:04Z</time>
      </trkpt>
      <trkpt lat="42.00523" lon="8.7953">
        <ele>703.82</ele>
        <time>2014-11-14T11:34:15Z</time>
      </trkpt>
      <trkpt lat="42.00523" lon="8.79529">
        <ele>703.82</ele>
        <time>2014-11-14T11:34:25Z</time>
      </trkpt>
      <trkpt lat="42.00524" lon="8.79529">
        <ele>703.34</ele>
        <time>2014-11-14T11:34:44Z</time>
      </trkpt>
      <trkpt lat="42.00523" lon="8.79529">
        <ele>703.82</ele>
        <time>2014-11-14T11:35:17Z</time>
      </trkpt>
      <trkpt lat="42.00523" lon="8.79529">
        <ele>703.82</ele>
        <time>2014-11-14T11:35:44Z</time>
      </trkpt>
      <trkpt lat="42.00522" lon="8.79529">
        <ele>703.82</ele>
        <time>2014-11-14T11:36:00Z</time>
      </trkpt>
      <trkpt lat="42.00523" lon="8.7953">
        <ele>703.82</ele>
        <time>2014-11-14T11:36:12Z</time>
      </trkpt>
      <trkpt lat="42.00523" lon="8.7953">
        <ele>703.34</ele>
        <time>2014-11-14T11:36:22Z</time>
      </trkpt>
      <trkpt lat="42.00523" lon="8.7953">
        <ele>703.82</ele>
        <time>2014-11-14T11:36:36Z</time>
      </trkpt>
      <trkpt lat="42.00523" lon="8.79529">
        <ele>703.82</ele>
        <time>2014-11-14T11:36:57Z</time>
      </trkpt>
      <trkpt lat="42.00523" lon="8.79529">
        <ele>703.82</ele>
        <time>2014-11-14T11:37:29Z</time>
      </trkpt>
      <trkpt lat="42.00523" lon="8.79529">
        <ele>703.82</ele>
        <time>2014-11-14T11:38:06Z</time>
      </trkpt>
      <trkpt lat="42.00523" lon="8.79529">
        <ele>703.34</ele>
        <time>2014-11-14T11:38:16Z</time>
      </trkpt>
      <trkpt lat="42.00524" lon="8.7953">
        <ele>703.34</ele>
        <time>2014-11-14T11:38:55Z</time>
      </trkpt>
      <trkpt lat="42.00524" lon="8.7953">
        <ele>703.34</ele>
        <time>2014-11-14T11:39:32Z</time>
      </trkpt>
      <trkpt lat="42.00525" lon="8.7953">
        <ele>702.86</ele>
        <time>2014-11-14T11:40:09Z</time>
      </trkpt>
      <trkpt lat="42.00525" lon="8.7953">
        <ele>703.82</ele>
        <time>2014-11-14T11:40:47Z</time>
      </trkpt>
      <trkpt lat="42.00524" lon="8.7953">
        <ele>702.86</ele>
        <time>2014-11-14T11:41:19Z</time>
      </trkpt>
      <trkpt lat="42.00524" lon="8.79529">
        <ele>702.86</ele>
        <time>2014-11-14T11:41:57Z</time>
      </trkpt>
      <trkpt lat="42.00524" lon="8.7953">
        <ele>702.86</ele>
        <time>2014-11-14T11:42:38Z</time>
      </trkpt>
      <trkpt lat="42.00524" lon="8.79529">
        <ele>702.38</ele>
        <time>2014-11-14T11:43:19Z</time>
      </trkpt>
      <trkpt lat="42.00524" lon="8.79529">
        <ele>702.38</ele>
        <time>2014-11-14T11:44:02Z</time>
      </trkpt>
      <trkpt lat="42.00524" lon="8.7953">
        <ele>702.86</ele>
        <time>2014-11-14T11:44:48Z</time>
      </trkpt>
      <trkpt lat="42.00524" lon="8.7953">
        <ele>702.38</ele>
        <time>2014-11-14T11:45:31Z</time>
      </trkpt>
      <trkpt lat="42.00524" lon="8.79529">
        <ele>702.38</ele>
        <time>2014-11-14T11:46:10Z</time>
      </trkpt>
      <trkpt lat="42.00525" lon="8.79529">
        <ele>702.38</ele>
        <time>2014-11-14T11:46:48Z</time>
      </trkpt>
      <trkpt lat="42.00524" lon="8.79529">
        <ele>702.38</ele>
        <time>2014-11-14T11:47:30Z</time>
      </trkpt>
      <trkpt lat="42.00524" lon="8.79529">
        <ele>702.38</ele>
        <time>2014-11-14T11:48:08Z</time>
      </trkpt>
      <trkpt lat="42.00525" lon="8.79529">
        <ele>702.86</ele>
        <time>2014-11-14T11:48:48Z</time>
      </trkpt>
      <trkpt lat="42.00524" lon="8.79529">
        <ele>702.38</ele>
        <time>2014-11-14T11:49:29Z</time>
      </trkpt>
      <trkpt lat="42.00525" lon="8.79529">
        <ele>702.38</ele>
        <time>2014-11-14T11:50:11Z</time>
      </trkpt>
      <trkpt lat="42.00525" lon="8.79528">
        <ele>702.38</ele>
        <time>2014-11-14T11:50:51Z</time>
      </trkpt>
      <trkpt lat="42.00524" lon="8.79529">
        <ele>702.38</ele>
        <time>2014-11-14T11:51:33Z</time>
      </trkpt>
      <trkpt lat="42.00524" lon="8.79529">
        <ele>702.38</ele>
        <time>2014-11-14T11:52:14Z</time>
      </trkpt>
      <trkpt lat="42.00525" lon="8.79529">
        <ele>702.38</ele>
        <time>2014-11-14T11:52:55Z</time>
      </trkpt>
      <trkpt lat="42.00525" lon="8.79529">
        <ele>702.38</ele>
        <time>2014-11-14T11:53:34Z</time>
      </trkpt>
      <trkpt lat="42.00525" lon="8.79529">
        <ele>702.38</ele>
        <time>2014-11-14T11:54:16Z</time>
      </trkpt>
      <trkpt lat="42.00524" lon="8.79529">
        <ele>702.86</ele>
        <time>2014-11-14T11:55:02Z</time>
      </trkpt>
      <trkpt lat="42.00525" lon="8.79529">
        <ele>702.86</ele>
        <time>2014-11-14T11:55:44Z</time>
      </trkpt>
      <trkpt lat="42.00525" lon="8.79529">
        <ele>702.86</ele>
        <time>2014-11-14T11:56:26Z</time>
      </trkpt>
      <trkpt lat="42.00525" lon="8.79529">
        <ele>702.86</ele>
        <time>2014-11-14T11:57:07Z</time>
      </trkpt>
      <trkpt lat="42.00525" lon="8.79529">
        <ele>702.86</ele>
        <time>2014-11-14T11:57:45Z</time>
      </trkpt>
      <trkpt lat="42.00525" lon="8.79529">
        <ele>702.86</ele>
        <time>2014-11-14T11:58:30Z</time>
      </trkpt>
      <trkpt lat="42.00525" lon="8.79529">
        <ele>702.86</ele>
        <time>2014-11-14T11:59:01Z</time>
      </trkpt>
      <trkpt lat="42.00524" lon="8.79529">
        <ele>702.86</ele>
        <time>2014-11-14T11:59:43Z</time>
      </trkpt>
      <trkpt lat="42.00524" lon="8.79529">
        <ele>702.86</ele>
        <time>2014-11-14T12:00:26Z</time>
      </trkpt>
      <trkpt lat="42.00524" lon="8.79529">
        <ele>702.86</ele>
        <time>2014-11-14T12:01:14Z</time>
      </trkpt>
      <trkpt lat="42.00524" lon="8.79529">
        <ele>702.86</ele>
        <time>2014-11-14T12:02:03Z</time>
      </trkpt>
      <trkpt lat="42.00524" lon="8.79529">
        <ele>703.34</ele>
        <time>2014-11-14T12:02:50Z</time>
      </trkpt>
      <trkpt lat="42.00524" lon="8.79529">
        <ele>703.34</ele>
        <time>2014-11-14T12:03:37Z</time>
      </trkpt>
      <trkpt lat="42.00525" lon="8.79529">
        <ele>703.34</ele>
        <time>2014-11-14T12:04:28Z</time>
      </trkpt>
      <trkpt lat="42.00524" lon="8.79529">
        <ele>703.34</ele>
        <time>2014-11-14T12:05:17Z</time>
      </trkpt>
      <trkpt lat="42.00524" lon="8.79529">
        <ele>703.82</ele>
        <time>2014-11-14T12:06:04Z</time>
      </trkpt>
      <trkpt lat="42.00525" lon="8.79529">
        <ele>703.82</ele>
        <time>2014-11-14T12:06:50Z</time>
      </trkpt>
      <trkpt lat="42.00524" lon="8.79529">
        <ele>703.82</ele>
        <time>2014-11-14T12:07:35Z</time>
      </trkpt>
      <trkpt lat="42.00524" lon="8.79528">
        <ele>703.82</ele>
        <time>2014-11-14T12:08:19Z</time>
      </trkpt>
      <trkpt lat="42.00525" lon="8.79529">
        <ele>703.82</ele>
        <time>2014-11-14T12:09:06Z</time>
      </trkpt>
      <trkpt lat="42.00525" lon="8.79529">
        <ele>703.34</ele>
        <time>2014-11-14T12:09:51Z</time>
      </trkpt>
      <trkpt lat="42.00525" lon="8.79529">
        <ele>702.86</ele>
        <time>2014-11-14T12:10:30Z</time>
      </trkpt>
      <trkpt lat="42.00525" lon="8.79529">
        <ele>702.86</ele>
        <time>2014-11-14T12:11:13Z</time>
      </trkpt>
      <trkpt lat="42.00525" lon="8.79529">
        <ele>702.38</ele>
        <time>2014-11-14T12:11:58Z</time>
      </trkpt>
      <trkpt lat="42.00525" lon="8.79529">
        <ele>702.38</ele>
        <time>2014-11-14T12:12:45Z</time>
      </trkpt>
      <trkpt lat="42.00525" lon="8.79529">
        <ele>701.9</ele>
        <time>2014-11-14T12:13:31Z</time>
      </trkpt>
      <trkpt lat="42.00524" lon="8.79529">
        <ele>702.38</ele>
        <time>2014-11-14T12:13:48Z</time>
      </trkpt>
      <trkpt lat="42.00525" lon="8.79529">
        <ele>702.86</ele>
        <time>2014-11-14T12:13:59Z</time>
      </trkpt>
      <trkpt lat="42.00525" lon="8.79529">
        <ele>702.86</ele>
        <time>2014-11-14T12:14:31Z</time>
      </trkpt>
      <trkpt lat="42.00526" lon="8.79528">
        <ele>702.38</ele>
        <time>2014-11-14T12:14:55Z</time>
      </trkpt>
      <trkpt lat="42.00525" lon="8.79529">
        <ele>702.38</ele>
        <time>2014-11-14T12:15:10Z</time>
      </trkpt>
      <trkpt lat="42.00525" lon="8.79529">
        <ele>702.38</ele>
        <time>2014-11-14T12:15:27Z</time>
      </trkpt>
      <trkpt lat="42.00524" lon="8.79529">
        <ele>702.38</ele>
        <time>2014-11-14T12:15:47Z</time>
      </trkpt>
      <trkpt lat="42.00524" lon="8.79531">
        <ele>701.9</ele>
        <time>2014-11-14T12:15:57Z</time>
      </trkpt>
      <trkpt lat="42.00524" lon="8.7953">
        <ele>702.38</ele>
        <time>2014-11-14T12:16:12Z</time>
      </trkpt>
      <trkpt lat="42.00524" lon="8.79528">
        <ele>701.9</ele>
        <time>2014-11-14T12:16:34Z</time>
      </trkpt>
      <trkpt lat="42.00528" lon="8.79522">
        <ele>701.9</ele>
        <time>2014-11-14T12:16:48Z</time>
      </trkpt>
      <trkpt lat="42.0053" lon="8.79522">
        <ele>701.42</ele>
        <time>2014-11-14T12:17:02Z</time>
      </trkpt>
      <trkpt lat="42.00534" lon="8.79525">
        <ele>699.98</ele>
        <time>2014-11-14T12:17:17Z</time>
      </trkpt>
      <trkpt lat="42.00535" lon="8.79525">
        <ele>699.5</ele>
        <time>2014-11-14T12:17:18Z</time>
      </trkpt>
      <trkpt lat="42.00544" lon="8.79527">
        <ele>699.02</ele>
        <time>2014-11-14T12:17:32Z</time>
      </trkpt>
      <trkpt lat="42.00555" lon="8.79535">
        <ele>699.02</ele>
        <time>2014-11-14T12:17:47Z</time>
      </trkpt>
      <trkpt lat="42.00562" lon="8.79544">
        <ele>699.5</ele>
        <time>2014-11-14T12:18:03Z</time>
      </trkpt>
      <trkpt lat="42.0057" lon="8.7955">
        <ele>699.5</ele>
        <time>2014-11-14T12:18:13Z</time>
      </trkpt>
      <trkpt lat="42.00577" lon="8.79562">
        <ele>698.53</ele>
        <time>2014-11-14T12:18:27Z</time>
      </trkpt>
      <trkpt lat="42.00579" lon="8.79576">
        <ele>697.09</ele>
        <time>2014-11-14T12:18:44Z</time>
      </trkpt>
      <trkpt lat="42.00582" lon="8.79585">
        <ele>695.65</ele>
        <time>2014-11-14T12:18:57Z</time>
      </trkpt>
      <trkpt lat="42.00585" lon="8.79586">
        <ele>695.65</ele>
        <time>2014-11-14T12:19:09Z</time>
      </trkpt>
      <trkpt lat="42.00587" lon="8.7959">
        <ele>694.69</ele>
        <time>2014-11-14T12:19:25Z</time>
      </trkpt>
      <trkpt lat="42.00595" lon="8.79596">
        <ele>692.77</ele>
        <time>2014-11-14T12:19:37Z</time>
      </trkpt>
      <trkpt lat="42.00599" lon="8.79596">
        <ele>692.29</ele>
        <time>2014-11-14T12:19:49Z</time>
      </trkpt>
      <trkpt lat="42.006" lon="8.79597">
        <ele>689.88</ele>
        <time>2014-11-14T12:20:06Z</time>
      </trkpt>
      <trkpt lat="42.00613" lon="8.79601">
        <ele>688.44</ele>
        <time>2014-11-14T12:20:19Z</time>
      </trkpt>
      <trkpt lat="42.00618" lon="8.79608">
        <ele>686.52</ele>
        <time>2014-11-14T12:20:32Z</time>
      </trkpt>
      <trkpt lat="42.00626" lon="8.79612">
        <ele>685.08</ele>
        <time>2014-11-14T12:20:47Z</time>
      </trkpt>
      <trkpt lat="42.00633" lon="8.79617">
        <ele>683.63</ele>
        <time>2014-11-14T12:20:58Z</time>
      </trkpt>
      <trkpt lat="42.00642" lon="8.79618">
        <ele>683.15</ele>
        <time>2014-11-14T12:21:10Z</time>
      </trkpt>
      <trkpt lat="42.00652" lon="8.79621">
        <ele>682.19</ele>
        <time>2014-11-14T12:21:23Z</time>
      </trkpt>
      <trkpt lat="42.00662" lon="8.79618">
        <ele>682.19</ele>
        <time>2014-11-14T12:21:35Z</time>
      </trkpt>
      <trkpt lat="42.00674" lon="8.79609">
        <ele>681.71</ele>
        <time>2014-11-14T12:21:49Z</time>
      </trkpt>
      <trkpt lat="42.00682" lon="8.79597">
        <ele>681.23</ele>
        <time>2014-11-14T12:22:02Z</time>
      </trkpt>
      <trkpt lat="42.00687" lon="8.7959">
        <ele>680.75</ele>
        <time>2014-11-14T12:22:10Z</time>
      </trkpt>
      <trkpt lat="42.00689" lon="8.79588">
        <ele>680.75</ele>
        <time>2014-11-14T12:22:12Z</time>
      </trkpt>
      <trkpt lat="42.00695" lon="8.79581">
        <ele>680.27</ele>
        <time>2014-11-14T12:22:21Z</time>
      </trkpt>
      <trkpt lat="42.00702" lon="8.79574">
        <ele>679.79</ele>
        <time>2014-11-14T12:22:32Z</time>
      </trkpt>
      <trkpt lat="42.00705" lon="8.79571">
        <ele>679.31</ele>
        <time>2014-11-14T12:22:36Z</time>
      </trkpt>
      <trkpt lat="42.00716" lon="8.79563">
        <ele>679.31</ele>
        <time>2014-11-14T12:22:49Z</time>
      </trkpt>
      <trkpt lat="42.0072" lon="8.79559">
        <ele>679.31</ele>
        <time>2014-11-14T12:22:55Z</time>
      </trkpt>
      <trkpt lat="42.00723" lon="8.79555">
        <ele>678.83</ele>
        <time>2014-11-14T12:23:00Z</time>
      </trkpt>
      <trkpt lat="42.00725" lon="8.79553">
        <ele>678.83</ele>
        <time>2014-11-14T12:23:02Z</time>
      </trkpt>
      <trkpt lat="42.00732" lon="8.79546">
        <ele>678.35</ele>
        <time>2014-11-14T12:23:11Z</time>
      </trkpt>
      <trkpt lat="42.00733" lon="8.79544">
        <ele>677.87</ele>
        <time>2014-11-14T12:23:13Z</time>
      </trkpt>
      <trkpt lat="42.00739" lon="8.79532">
        <ele>677.87</ele>
        <time>2014-11-14T12:23:25Z</time>
      </trkpt>
      <trkpt lat="42.00744" lon="8.79523">
        <ele>677.39</ele>
        <time>2014-11-14T12:23:34Z</time>
      </trkpt>
      <trkpt lat="42.00752" lon="8.79512">
        <ele>677.39</ele>
        <time>2014-11-14T12:23:46Z</time>
      </trkpt>
      <trkpt lat="42.00753" lon="8.79508">
        <ele>677.39</ele>
        <time>2014-11-14T12:23:50Z</time>
      </trkpt>
      <trkpt lat="42.00761" lon="8.79495">
        <ele>677.39</ele>
        <time>2014-11-14T12:24:04Z</time>
      </trkpt>
      <trkpt lat="42.00762" lon="8.79492">
        <ele>677.39</ele>
        <time>2014-11-14T12:24:06Z</time>
      </trkpt>
      <trkpt lat="42.00763" lon="8.7949">
        <ele>677.39</ele>
        <time>2014-11-14T12:24:08Z</time>
      </trkpt>
      <trkpt lat="42.00766" lon="8.79486">
        <ele>676.91</ele>
        <time>2014-11-14T12:24:12Z</time>
      </trkpt>
      <trkpt lat="42.00773" lon="8.79478">
        <ele>677.39</ele>
        <time>2014-11-14T12:24:23Z</time>
      </trkpt>
      <trkpt lat="42.00782" lon="8.79467">
        <ele>676.91</ele>
        <time>2014-11-14T12:24:36Z</time>
      </trkpt>
      <trkpt lat="42.00791" lon="8.79457">
        <ele>677.39</ele>
        <time>2014-11-14T12:24:50Z</time>
      </trkpt>
      <trkpt lat="42.00792" lon="8.79456">
        <ele>677.39</ele>
        <time>2014-11-14T12:24:52Z</time>
      </trkpt>
      <trkpt lat="42.00806" lon="8.79444">
        <ele>676.91</ele>
        <time>2014-11-14T12:25:08Z</time>
      </trkpt>
      <trkpt lat="42.00808" lon="8.79442">
        <ele>677.39</ele>
        <time>2014-11-14T12:25:11Z</time>
      </trkpt>
      <trkpt lat="42.00815" lon="8.79432">
        <ele>677.39</ele>
        <time>2014-11-14T12:25:23Z</time>
      </trkpt>
      <trkpt lat="42.00819" lon="8.79428">
        <ele>677.39</ele>
        <time>2014-11-14T12:25:28Z</time>
      </trkpt>
      <trkpt lat="42.0083" lon="8.79415">
        <ele>678.35</ele>
        <time>2014-11-14T12:25:44Z</time>
      </trkpt>
      <trkpt lat="42.00832" lon="8.79413">
        <ele>678.35</ele>
        <time>2014-11-14T12:25:47Z</time>
      </trkpt>
      <trkpt lat="42.00838" lon="8.79401">
        <ele>678.83</ele>
        <time>2014-11-14T12:25:58Z</time>
      </trkpt>
      <trkpt lat="42.00839" lon="8.79399">
        <ele>679.31</ele>
        <time>2014-11-14T12:26:01Z</time>
      </trkpt>
      <trkpt lat="42.00844" lon="8.79392">
        <ele>680.27</ele>
        <time>2014-11-14T12:26:09Z</time>
      </trkpt>
      <trkpt lat="42.00852" lon="8.79382">
        <ele>679.79</ele>
        <time>2014-11-14T12:26:22Z</time>
      </trkpt>
      <trkpt lat="42.00854" lon="8.79381">
        <ele>679.31</ele>
        <time>2014-11-14T12:26:25Z</time>
      </trkpt>
      <trkpt lat="42.00858" lon="8.79378">
        <ele>679.79</ele>
        <time>2014-11-14T12:26:30Z</time>
      </trkpt>
      <trkpt lat="42.00865" lon="8.79375">
        <ele>680.75</ele>
        <time>2014-11-14T12:26:40Z</time>
      </trkpt>
      <trkpt lat="42.00867" lon="8.79373">
        <ele>680.27</ele>
        <time>2014-11-14T12:26:42Z</time>
      </trkpt>
      <trkpt lat="42.00877" lon="8.79367">
        <ele>680.27</ele>
        <time>2014-11-14T12:26:56Z</time>
      </trkpt>
      <trkpt lat="42.00885" lon="8.79359">
        <ele>679.31</ele>
        <time>2014-11-14T12:27:09Z</time>
      </trkpt>
      <trkpt lat="42.00892" lon="8.7935">
        <ele>679.79</ele>
        <time>2014-11-14T12:27:21Z</time>
      </trkpt>
      <trkpt lat="42.00902" lon="8.79339">
        <ele>679.79</ele>
        <time>2014-11-14T12:27:35Z</time>
      </trkpt>
      <trkpt lat="42.00906" lon="8.79334">
        <ele>679.79</ele>
        <time>2014-11-14T12:27:41Z</time>
      </trkpt>
      <trkpt lat="42.00909" lon="8.79328">
        <ele>679.79</ele>
        <time>2014-11-14T12:27:54Z</time>
      </trkpt>
      <trkpt lat="42.00909" lon="8.79327">
        <ele>679.79</ele>
        <time>2014-11-14T12:28:03Z</time>
      </trkpt>
      <trkpt lat="42.00911" lon="8.79322">
        <ele>679.31</ele>
        <time>2014-11-14T12:28:09Z</time>
      </trkpt>
      <trkpt lat="42.00914" lon="8.79318">
        <ele>678.83</ele>
        <time>2014-11-14T12:28:22Z</time>
      </trkpt>
      <trkpt lat="42.00917" lon="8.7931">
        <ele>677.87</ele>
        <time>2014-11-14T12:28:34Z</time>
      </trkpt>
      <trkpt lat="42.00918" lon="8.79304">
        <ele>677.39</ele>
        <time>2014-11-14T12:28:46Z</time>
      </trkpt>
      <trkpt lat="42.0092" lon="8.79303">
        <ele>676.91</ele>
        <time>2014-11-14T12:28:59Z</time>
      </trkpt>
      <trkpt lat="42.00922" lon="8.79302">
        <ele>676.91</ele>
        <time>2014-11-14T12:29:15Z</time>
      </trkpt>
      <trkpt lat="42.00924" lon="8.79301">
        <ele>676.91</ele>
        <time>2014-11-14T12:29:26Z</time>
      </trkpt>
      <trkpt lat="42.00931" lon="8.793">
        <ele>678.35</ele>
        <time>2014-11-14T12:29:39Z</time>
      </trkpt>
      <trkpt lat="42.00935" lon="8.793">
        <ele>678.35</ele>
        <time>2014-11-14T12:29:52Z</time>
      </trkpt>
      <trkpt lat="42.00942" lon="8.79297">
        <ele>678.83</ele>
        <time>2014-11-14T12:30:06Z</time>
      </trkpt>
      <trkpt lat="42.00948" lon="8.79295">
        <ele>679.79</ele>
        <time>2014-11-14T12:30:19Z</time>
      </trkpt>
      <trkpt lat="42.00956" lon="8.79286">
        <ele>678.35</ele>
        <time>2014-11-14T12:30:30Z</time>
      </trkpt>
      <trkpt lat="42.00964" lon="8.79278">
        <ele>678.83</ele>
        <time>2014-11-14T12:30:40Z</time>
      </trkpt>
      <trkpt lat="42.00975" lon="8.79264">
        <ele>678.35</ele>
        <time>2014-11-14T12:30:54Z</time>
      </trkpt>
      <trkpt lat="42.00981" lon="8.79259">
        <ele>677.39</ele>
        <time>2014-11-14T12:31:02Z</time>
      </trkpt>
      <trkpt lat="42.00989" lon="8.7925">
        <ele>676.42</ele>
        <time>2014-11-14T12:31:14Z</time>
      </trkpt>
      <trkpt lat="42.00996" lon="8.79242">
        <ele>676.42</ele>
        <time>2014-11-14T12:31:26Z</time>
      </trkpt>
      <trkpt lat="42.01001" lon="8.79236">
        <ele>676.91</ele>
        <time>2014-11-14T12:31:41Z</time>
      </trkpt>
      <trkpt lat="42.01008" lon="8.79229">
        <ele>677.87</ele>
        <time>2014-11-14T12:31:52Z</time>
      </trkpt>
      <trkpt lat="42.01013" lon="8.79224">
        <ele>678.83</ele>
        <time>2014-11-14T12:32:05Z</time>
      </trkpt>
      <trkpt lat="42.01017" lon="8.79218">
        <ele>678.35</ele>
        <time>2014-11-14T12:32:16Z</time>
      </trkpt>
      <trkpt lat="42.01019" lon="8.79214">
        <ele>678.83</ele>
        <time>2014-11-14T12:32:30Z</time>
      </trkpt>
      <trkpt lat="42.01021" lon="8.79205">
        <ele>678.83</ele>
        <time>2014-11-14T12:32:40Z</time>
      </trkpt>
      <trkpt lat="42.01023" lon="8.79202">
        <ele>679.79</ele>
        <time>2014-11-14T12:32:45Z</time>
      </trkpt>
      <trkpt lat="42.01026" lon="8.79193">
        <ele>679.79</ele>
        <time>2014-11-14T12:32:56Z</time>
      </trkpt>
      <trkpt lat="42.01027" lon="8.79189">
        <ele>680.75</ele>
        <time>2014-11-14T12:33:07Z</time>
      </trkpt>
      <trkpt lat="42.01029" lon="8.79182">
        <ele>682.19</ele>
        <time>2014-11-14T12:33:20Z</time>
      </trkpt>
      <trkpt lat="42.01031" lon="8.79172">
        <ele>682.19</ele>
        <time>2014-11-14T12:33:31Z</time>
      </trkpt>
      <trkpt lat="42.01035" lon="8.7916">
        <ele>682.67</ele>
        <time>2014-11-14T12:33:43Z</time>
      </trkpt>
      <trkpt lat="42.01034" lon="8.79155">
        <ele>683.63</ele>
        <time>2014-11-14T12:33:55Z</time>
      </trkpt>
      <trkpt lat="42.01033" lon="8.7915">
        <ele>683.63</ele>
        <time>2014-11-14T12:34:08Z</time>
      </trkpt>
      <trkpt lat="42.01032" lon="8.79151">
        <ele>684.12</ele>
        <time>2014-11-14T12:34:20Z</time>
      </trkpt>
      <trkpt lat="42.01035" lon="8.79145">
        <ele>684.6</ele>
        <time>2014-11-14T12:34:31Z</time>
      </trkpt>
      <trkpt lat="42.01035" lon="8.79145">
        <ele>685.56</ele>
        <time>2014-11-14T12:34:33Z</time>
      </trkpt>
      <trkpt lat="42.01035" lon="8.79141">
        <ele>685.56</ele>
        <time>2014-11-14T12:34:36Z</time>
      </trkpt>
      <trkpt lat="42.01037" lon="8.79134">
        <ele>686.04</ele>
        <time>2014-11-14T12:34:41Z</time>
      </trkpt>
      <trkpt lat="42.01041" lon="8.79128">
        <ele>686.04</ele>
        <time>2014-11-14T12:34:53Z</time>
      </trkpt>
      <trkpt lat="42.01042" lon="8.79123">
        <ele>685.08</ele>
        <time>2014-11-14T12:35:06Z</time>
      </trkpt>
      <trkpt lat="42.01046" lon="8.79108">
        <ele>684.6</ele>
        <time>2014-11-14T12:35:15Z</time>
      </trkpt>
      <trkpt lat="42.01048" lon="8.79101">
        <ele>684.6</ele>
        <time>2014-11-14T12:35:21Z</time>
      </trkpt>
      <trkpt lat="42.01048" lon="8.79098">
        <ele>685.08</ele>
        <time>2014-11-14T12:35:23Z</time>
      </trkpt>
      <trkpt lat="42.01048" lon="8.79094">
        <ele>684.6</ele>
        <time>2014-11-14T12:35:26Z</time>
      </trkpt>
      <trkpt lat="42.01048" lon="8.79085">
        <ele>685.08</ele>
        <time>2014-11-14T12:35:32Z</time>
      </trkpt>
      <trkpt lat="42.01051" lon="8.79073">
        <ele>685.56</ele>
        <time>2014-11-14T12:35:44Z</time>
      </trkpt>
      <trkpt lat="42.01054" lon="8.79059">
        <ele>685.56</ele>
        <time>2014-11-14T12:36:00Z</time>
      </trkpt>
      <trkpt lat="42.01056" lon="8.79053">
        <ele>686.04</ele>
        <time>2014-11-14T12:36:06Z</time>
      </trkpt>
      <trkpt lat="42.01058" lon="8.7904">
        <ele>686.04</ele>
        <time>2014-11-14T12:36:18Z</time>
      </trkpt>
      <trkpt lat="42.01058" lon="8.7904">
        <ele>686.04</ele>
        <time>2014-11-14T12:36:32Z</time>
      </trkpt>
      <trkpt lat="42.01057" lon="8.79037">
        <ele>687</ele>
        <time>2014-11-14T12:36:53Z</time>
      </trkpt>
      <trkpt lat="42.01058" lon="8.79026">
        <ele>687</ele>
        <time>2014-11-14T12:37:04Z</time>
      </trkpt>
      <trkpt lat="42.01058" lon="8.79024">
        <ele>687</ele>
        <time>2014-11-14T12:37:06Z</time>
      </trkpt>
      <trkpt lat="42.01057" lon="8.7901">
        <ele>687</ele>
        <time>2014-11-14T12:37:16Z</time>
      </trkpt>
      <trkpt lat="42.01058" lon="8.79006">
        <ele>687.48</ele>
        <time>2014-11-14T12:37:19Z</time>
      </trkpt>
      <trkpt lat="42.01057" lon="8.79003">
        <ele>687</ele>
        <time>2014-11-14T12:37:21Z</time>
      </trkpt>
      <trkpt lat="42.01058" lon="8.78986">
        <ele>687</ele>
        <time>2014-11-14T12:37:34Z</time>
      </trkpt>
      <trkpt lat="42.01058" lon="8.78979">
        <ele>686.52</ele>
        <time>2014-11-14T12:37:39Z</time>
      </trkpt>
      <trkpt lat="42.01058" lon="8.78976">
        <ele>686.52</ele>
        <time>2014-11-14T12:37:41Z</time>
      </trkpt>
      <trkpt lat="42.01051" lon="8.78964">
        <ele>687</ele>
        <time>2014-11-14T12:37:53Z</time>
      </trkpt>
      <trkpt lat="42.0105" lon="8.78962">
        <ele>686.52</ele>
        <time>2014-11-14T12:37:55Z</time>
      </trkpt>
      <trkpt lat="42.01047" lon="8.78949">
        <ele>688.92</ele>
        <time>2014-11-14T12:38:08Z</time>
      </trkpt>
      <trkpt lat="42.01048" lon="8.78939">
        <ele>689.88</ele>
        <time>2014-11-14T12:38:19Z</time>
      </trkpt>
      <trkpt lat="42.01048" lon="8.78927">
        <ele>690.36</ele>
        <time>2014-11-14T12:38:30Z</time>
      </trkpt>
      <trkpt lat="42.01047" lon="8.78917">
        <ele>689.88</ele>
        <time>2014-11-14T12:38:38Z</time>
      </trkpt>
      <trkpt lat="42.0105" lon="8.78906">
        <ele>691.81</ele>
        <time>2014-11-14T12:38:52Z</time>
      </trkpt>
      <trkpt lat="42.0105" lon="8.78904">
        <ele>692.29</ele>
        <time>2014-11-14T12:39:11Z</time>
      </trkpt>
      <trkpt lat="42.0105" lon="8.78904">
        <ele>692.29</ele>
        <time>2014-11-14T12:39:29Z</time>
      </trkpt>
      <trkpt lat="42.0105" lon="8.78903">
        <ele>691.81</ele>
        <time>2014-11-14T12:39:47Z</time>
      </trkpt>
      <trkpt lat="42.01049" lon="8.78904">
        <ele>692.29</ele>
        <time>2014-11-14T12:40:05Z</time>
      </trkpt>
      <trkpt lat="42.01047" lon="8.78905">
        <ele>692.29</ele>
        <time>2014-11-14T12:40:23Z</time>
      </trkpt>
      <trkpt lat="42.01048" lon="8.78905">
        <ele>692.29</ele>
        <time>2014-11-14T12:40:57Z</time>
      </trkpt>
      <trkpt lat="42.01048" lon="8.78906">
        <ele>692.29</ele>
        <time>2014-11-14T12:41:32Z</time>
      </trkpt>
      <trkpt lat="42.01047" lon="8.78905">
        <ele>692.77</ele>
        <time>2014-11-14T12:41:59Z</time>
      </trkpt>
      <trkpt lat="42.01047" lon="8.78904">
        <ele>692.77</ele>
        <time>2014-11-14T12:42:29Z</time>
      </trkpt>
      <trkpt lat="42.01047" lon="8.78904">
        <ele>692.77</ele>
        <time>2014-11-14T12:42:52Z</time>
      </trkpt>
      <trkpt lat="42.01052" lon="8.78894">
        <ele>692.77</ele>
        <time>2014-11-14T12:43:06Z</time>
      </trkpt>
      <trkpt lat="42.01053" lon="8.7889">
        <ele>693.25</ele>
        <time>2014-11-14T12:43:11Z</time>
      </trkpt>
      <trkpt lat="42.01051" lon="8.78885">
        <ele>692.77</ele>
        <time>2014-11-14T12:43:15Z</time>
      </trkpt>
      <trkpt lat="42.01052" lon="8.78876">
        <ele>693.25</ele>
        <time>2014-11-14T12:43:23Z</time>
      </trkpt>
      <trkpt lat="42.01054" lon="8.78871">
        <ele>693.25</ele>
        <time>2014-11-14T12:43:27Z</time>
      </trkpt>
      <trkpt lat="42.01056" lon="8.78867">
        <ele>693.25</ele>
        <time>2014-11-14T12:43:30Z</time>
      </trkpt>
      <trkpt lat="42.01057" lon="8.78864">
        <ele>693.25</ele>
        <time>2014-11-14T12:43:32Z</time>
      </trkpt>
      <trkpt lat="42.01058" lon="8.78862">
        <ele>692.77</ele>
        <time>2014-11-14T12:43:34Z</time>
      </trkpt>
      <trkpt lat="42.01066" lon="8.78846">
        <ele>692.77</ele>
        <time>2014-11-14T12:43:47Z</time>
      </trkpt>
      <trkpt lat="42.01069" lon="8.78842">
        <ele>693.25</ele>
        <time>2014-11-14T12:43:51Z</time>
      </trkpt>
      <trkpt lat="42.01069" lon="8.78838">
        <ele>692.29</ele>
        <time>2014-11-14T12:43:54Z</time>
      </trkpt>
      <trkpt lat="42.0107" lon="8.78831">
        <ele>692.77</ele>
        <time>2014-11-14T12:43:59Z</time>
      </trkpt>
      <trkpt lat="42.0107" lon="8.78824">
        <ele>692.29</ele>
        <time>2014-11-14T12:44:06Z</time>
      </trkpt>
      <trkpt lat="42.0107" lon="8.78821">
        <ele>692.29</ele>
        <time>2014-11-14T12:44:09Z</time>
      </trkpt>
      <trkpt lat="42.01071" lon="8.78818">
        <ele>692.29</ele>
        <time>2014-11-14T12:44:11Z</time>
      </trkpt>
      <trkpt lat="42.01072" lon="8.788">
        <ele>691.33</ele>
        <time>2014-11-14T12:44:24Z</time>
      </trkpt>
      <trkpt lat="42.01074" lon="8.78795">
        <ele>691.33</ele>
        <time>2014-11-14T12:44:28Z</time>
      </trkpt>
      <trkpt lat="42.01078" lon="8.78777">
        <ele>691.81</ele>
        <time>2014-11-14T12:44:42Z</time>
      </trkpt>
      <trkpt lat="42.0108" lon="8.78765">
        <ele>689.88</ele>
        <time>2014-11-14T12:44:52Z</time>
      </trkpt>
      <trkpt lat="42.0108" lon="8.78762">
        <ele>689.4</ele>
        <time>2014-11-14T12:44:55Z</time>
      </trkpt>
      <trkpt lat="42.01081" lon="8.78749">
        <ele>690.36</ele>
        <time>2014-11-14T12:45:07Z</time>
      </trkpt>
      <trkpt lat="42.0108" lon="8.78747">
        <ele>690.36</ele>
        <time>2014-11-14T12:45:09Z</time>
      </trkpt>
      <trkpt lat="42.0108" lon="8.78739">
        <ele>690.36</ele>
        <time>2014-11-14T12:45:15Z</time>
      </trkpt>
      <trkpt lat="42.0108" lon="8.78736">
        <ele>690.36</ele>
        <time>2014-11-14T12:45:17Z</time>
      </trkpt>
      <trkpt lat="42.01081" lon="8.78733">
        <ele>689.88</ele>
        <time>2014-11-14T12:45:19Z</time>
      </trkpt>
      <trkpt lat="42.0108" lon="8.78729">
        <ele>689.88</ele>
        <time>2014-11-14T12:45:22Z</time>
      </trkpt>
      <trkpt lat="42.0108" lon="8.78716">
        <ele>689.4</ele>
        <time>2014-11-14T12:45:34Z</time>
      </trkpt>
      <trkpt lat="42.01083" lon="8.78702">
        <ele>687.96</ele>
        <time>2014-11-14T12:45:46Z</time>
      </trkpt>
      <trkpt lat="42.01084" lon="8.78698">
        <ele>688.44</ele>
        <time>2014-11-14T12:46:03Z</time>
      </trkpt>
      <trkpt lat="42.01085" lon="8.78693">
        <ele>687.96</ele>
        <time>2014-11-14T12:46:09Z</time>
      </trkpt>
      <trkpt lat="42.01085" lon="8.78687">
        <ele>688.44</ele>
        <time>2014-11-14T12:46:14Z</time>
      </trkpt>
      <trkpt lat="42.01088" lon="8.78675">
        <ele>687.96</ele>
        <time>2014-11-14T12:46:22Z</time>
      </trkpt>
      <trkpt lat="42.01088" lon="8.78672">
        <ele>687.96</ele>
        <time>2014-11-14T12:46:24Z</time>
      </trkpt>
      <trkpt lat="42.01088" lon="8.78667">
        <ele>687.96</ele>
        <time>2014-11-14T12:46:34Z</time>
      </trkpt>
      <trkpt lat="42.01088" lon="8.78664">
        <ele>688.44</ele>
        <time>2014-11-14T12:46:36Z</time>
      </trkpt>
      <trkpt lat="42.01089" lon="8.78655">
        <ele>687.96</ele>
        <time>2014-11-14T12:46:43Z</time>
      </trkpt>
      <trkpt lat="42.0109" lon="8.78652">
        <ele>688.44</ele>
        <time>2014-11-14T12:46:45Z</time>
      </trkpt>
      <trkpt lat="42.0109" lon="8.78635">
        <ele>688.92</ele>
        <time>2014-11-14T12:46:57Z</time>
      </trkpt>
      <trkpt lat="42.01091" lon="8.78633">
        <ele>688.92</ele>
        <time>2014-11-14T12:47:07Z</time>
      </trkpt>
      <trkpt lat="42.0109" lon="8.78629">
        <ele>688.92</ele>
        <time>2014-11-14T12:47:24Z</time>
      </trkpt>
      <trkpt lat="42.0109" lon="8.78625">
        <ele>688.92</ele>
        <time>2014-11-14T12:47:36Z</time>
      </trkpt>
      <trkpt lat="42.01092" lon="8.78616">
        <ele>688.92</ele>
        <time>2014-11-14T12:47:42Z</time>
      </trkpt>
      <trkpt lat="42.01094" lon="8.78609">
        <ele>688.44</ele>
        <time>2014-11-14T12:47:46Z</time>
      </trkpt>
      <trkpt lat="42.01097" lon="8.78595">
        <ele>687.96</ele>
        <time>2014-11-14T12:47:54Z</time>
      </trkpt>
      <trkpt lat="42.01098" lon="8.78584">
        <ele>688.44</ele>
        <time>2014-11-14T12:48:00Z</time>
      </trkpt>
      <trkpt lat="42.01097" lon="8.78579">
        <ele>687.96</ele>
        <time>2014-11-14T12:48:03Z</time>
      </trkpt>
      <trkpt lat="42.01099" lon="8.78569">
        <ele>687.96</ele>
        <time>2014-11-14T12:48:09Z</time>
      </trkpt>
      <trkpt lat="42.01097" lon="8.78545">
        <ele>688.92</ele>
        <time>2014-11-14T12:48:21Z</time>
      </trkpt>
      <trkpt lat="42.01099" lon="8.7852">
        <ele>688.44</ele>
        <time>2014-11-14T12:48:36Z</time>
      </trkpt>
      <trkpt lat="42.011" lon="8.7851">
        <ele>688.44</ele>
        <time>2014-11-14T12:48:42Z</time>
      </trkpt>
      <trkpt lat="42.01101" lon="8.78504">
        <ele>687.96</ele>
        <time>2014-11-14T12:48:47Z</time>
      </trkpt>
      <trkpt lat="42.01105" lon="8.78491">
        <ele>688.44</ele>
        <time>2014-11-14T12:48:58Z</time>
      </trkpt>
      <trkpt lat="42.01106" lon="8.78487">
        <ele>688.44</ele>
        <time>2014-11-14T12:49:01Z</time>
      </trkpt>
      <trkpt lat="42.01108" lon="8.78485">
        <ele>688.44</ele>
        <time>2014-11-14T12:49:04Z</time>
      </trkpt>
      <trkpt lat="42.0111" lon="8.78483">
        <ele>689.4</ele>
        <time>2014-11-14T12:49:07Z</time>
      </trkpt>
      <trkpt lat="42.01116" lon="8.78476">
        <ele>689.88</ele>
        <time>2014-11-14T12:49:18Z</time>
      </trkpt>
      <trkpt lat="42.0112" lon="8.78471">
        <ele>689.88</ele>
        <time>2014-11-14T12:49:29Z</time>
      </trkpt>
      <trkpt lat="42.01122" lon="8.78468">
        <ele>689.88</ele>
        <time>2014-11-14T12:49:32Z</time>
      </trkpt>
      <trkpt lat="42.0113" lon="8.78461">
        <ele>689.4</ele>
        <time>2014-11-14T12:49:41Z</time>
      </trkpt>
      <trkpt lat="42.01134" lon="8.78454">
        <ele>688.44</ele>
        <time>2014-11-14T12:49:53Z</time>
      </trkpt>
      <trkpt lat="42.01137" lon="8.78452">
        <ele>687.48</ele>
        <time>2014-11-14T12:50:03Z</time>
      </trkpt>
      <trkpt lat="42.01141" lon="8.78452">
        <ele>687</ele>
        <time>2014-11-14T12:50:16Z</time>
      </trkpt>
      <trkpt lat="42.01146" lon="8.78451">
        <ele>687.96</ele>
        <time>2014-11-14T12:50:30Z</time>
      </trkpt>
      <trkpt lat="42.01147" lon="8.78449">
        <ele>687.48</ele>
        <time>2014-11-14T12:50:33Z</time>
      </trkpt>
      <trkpt lat="42.01154" lon="8.78442">
        <ele>686.52</ele>
        <time>2014-11-14T12:50:44Z</time>
      </trkpt>
      <trkpt lat="42.01157" lon="8.78429">
        <ele>684.6</ele>
        <time>2014-11-14T12:50:57Z</time>
      </trkpt>
      <trkpt lat="42.01157" lon="8.78427">
        <ele>684.6</ele>
        <time>2014-11-14T12:50:59Z</time>
      </trkpt>
      <trkpt lat="42.01158" lon="8.78424">
        <ele>684.12</ele>
        <time>2014-11-14T12:51:02Z</time>
      </trkpt>
      <trkpt lat="42.01164" lon="8.78412">
        <ele>684.6</ele>
        <time>2014-11-14T12:51:15Z</time>
      </trkpt>
      <trkpt lat="42.01167" lon="8.78405">
        <ele>683.15</ele>
        <time>2014-11-14T12:51:24Z</time>
      </trkpt>
      <trkpt lat="42.01171" lon="8.78393">
        <ele>682.67</ele>
        <time>2014-11-14T12:51:37Z</time>
      </trkpt>
      <trkpt lat="42.01175" lon="8.78385">
        <ele>681.71</ele>
        <time>2014-11-14T12:51:48Z</time>
      </trkpt>
      <trkpt lat="42.01177" lon="8.78377">
        <ele>679.79</ele>
        <time>2014-11-14T12:52:00Z</time>
      </trkpt>
      <trkpt lat="42.01181" lon="8.78361">
        <ele>678.35</ele>
        <time>2014-11-14T12:52:15Z</time>
      </trkpt>
      <trkpt lat="42.01181" lon="8.78358">
        <ele>678.35</ele>
        <time>2014-11-14T12:52:19Z</time>
      </trkpt>
      <trkpt lat="42.01183" lon="8.78346">
        <ele>677.39</ele>
        <time>2014-11-14T12:52:32Z</time>
      </trkpt>
      <trkpt lat="42.01184" lon="8.78338">
        <ele>675.94</ele>
        <time>2014-11-14T12:52:44Z</time>
      </trkpt>
      <trkpt lat="42.01184" lon="8.78325">
        <ele>674.5</ele>
        <time>2014-11-14T12:52:56Z</time>
      </trkpt>
      <trkpt lat="42.01184" lon="8.78324">
        <ele>674.02</ele>
        <time>2014-11-14T12:52:59Z</time>
      </trkpt>
      <trkpt lat="42.01183" lon="8.7831">
        <ele>672.1</ele>
        <time>2014-11-14T12:53:13Z</time>
      </trkpt>
      <trkpt lat="42.01182" lon="8.78305">
        <ele>670.66</ele>
        <time>2014-11-14T12:53:25Z</time>
      </trkpt>
      <trkpt lat="42.01182" lon="8.783">
        <ele>669.22</ele>
        <time>2014-11-14T12:53:37Z</time>
      </trkpt>
      <trkpt lat="42.01181" lon="8.783">
        <ele>668.73</ele>
        <time>2014-11-14T12:53:53Z</time>
      </trkpt>
      <trkpt lat="42.01177" lon="8.78295">
        <ele>665.85</ele>
        <time>2014-11-14T12:54:05Z</time>
      </trkpt>
      <trkpt lat="42.01171" lon="8.78291">
        <ele>664.41</ele>
        <time>2014-11-14T12:54:18Z</time>
      </trkpt>
      <trkpt lat="42.01169" lon="8.7829">
        <ele>663.45</ele>
        <time>2014-11-14T12:54:30Z</time>
      </trkpt>
      <trkpt lat="42.01165" lon="8.78289">
        <ele>662.01</ele>
        <time>2014-11-14T12:54:44Z</time>
      </trkpt>
      <trkpt lat="42.01163" lon="8.78286">
        <ele>660.08</ele>
        <time>2014-11-14T12:54:57Z</time>
      </trkpt>
      <trkpt lat="42.01161" lon="8.78279">
        <ele>658.64</ele>
        <time>2014-11-14T12:55:12Z</time>
      </trkpt>
      <trkpt lat="42.01161" lon="8.78277">
        <ele>657.68</ele>
        <time>2014-11-14T12:55:25Z</time>
      </trkpt>
      <trkpt lat="42.01161" lon="8.78273">
        <ele>656.72</ele>
        <time>2014-11-14T12:55:40Z</time>
      </trkpt>
      <trkpt lat="42.01159" lon="8.78268">
        <ele>655.28</ele>
        <time>2014-11-14T12:55:53Z</time>
      </trkpt>
      <trkpt lat="42.01159" lon="8.78267">
        <ele>653.83</ele>
        <time>2014-11-14T12:56:06Z</time>
      </trkpt>
      <trkpt lat="42.01158" lon="8.78265">
        <ele>652.39</ele>
        <time>2014-11-14T12:56:19Z</time>
      </trkpt>
      <trkpt lat="42.01157" lon="8.78261">
        <ele>649.99</ele>
        <time>2014-11-14T12:56:31Z</time>
      </trkpt>
      <trkpt lat="42.01156" lon="8.78258">
        <ele>649.99</ele>
        <time>2014-11-14T12:56:41Z</time>
      </trkpt>
      <trkpt lat="42.01155" lon="8.78254">
        <ele>649.03</ele>
        <time>2014-11-14T12:56:57Z</time>
      </trkpt>
      <trkpt lat="42.01149" lon="8.78242">
        <ele>647.59</ele>
        <time>2014-11-14T12:57:09Z</time>
      </trkpt>
      <trkpt lat="42.01147" lon="8.78237">
        <ele>647.1</ele>
        <time>2014-11-14T12:57:23Z</time>
      </trkpt>
      <trkpt lat="42.01145" lon="8.78228">
        <ele>645.66</ele>
        <time>2014-11-14T12:57:42Z</time>
      </trkpt>
      <trkpt lat="42.0114" lon="8.78214">
        <ele>643.26</ele>
        <time>2014-11-14T12:57:55Z</time>
      </trkpt>
      <trkpt lat="42.01137" lon="8.78205">
        <ele>641.34</ele>
        <time>2014-11-14T12:58:09Z</time>
      </trkpt>
      <trkpt lat="42.01133" lon="8.78196">
        <ele>638.93</ele>
        <time>2014-11-14T12:58:25Z</time>
      </trkpt>
      <trkpt lat="42.01132" lon="8.78186">
        <ele>637.49</ele>
        <time>2014-11-14T12:58:37Z</time>
      </trkpt>
      <trkpt lat="42.01132" lon="8.78184">
        <ele>637.49</ele>
        <time>2014-11-14T12:58:38Z</time>
      </trkpt>
      <trkpt lat="42.01134" lon="8.78167">
        <ele>637.01</ele>
        <time>2014-11-14T12:58:51Z</time>
      </trkpt>
      <trkpt lat="42.01134" lon="8.78156">
        <ele>636.05</ele>
        <time>2014-11-14T12:59:01Z</time>
      </trkpt>
      <trkpt lat="42.01133" lon="8.78151">
        <ele>636.05</ele>
        <time>2014-11-14T12:59:05Z</time>
      </trkpt>
      <trkpt lat="42.01134" lon="8.78146">
        <ele>636.53</ele>
        <time>2014-11-14T12:59:18Z</time>
      </trkpt>
      <trkpt lat="42.01134" lon="8.78127">
        <ele>634.61</ele>
        <time>2014-11-14T12:59:33Z</time>
      </trkpt>
      <trkpt lat="42.01137" lon="8.78116">
        <ele>633.65</ele>
        <time>2014-11-14T12:59:45Z</time>
      </trkpt>
      <trkpt lat="42.01139" lon="8.78109">
        <ele>632.68</ele>
        <time>2014-11-14T12:59:58Z</time>
      </trkpt>
      <trkpt lat="42.0114" lon="8.78106">
        <ele>631.72</ele>
        <time>2014-11-14T13:00:09Z</time>
      </trkpt>
      <trkpt lat="42.01142" lon="8.78098">
        <ele>631.24</ele>
        <time>2014-11-14T13:00:16Z</time>
      </trkpt>
      <trkpt lat="42.01144" lon="8.78085">
        <ele>630.76</ele>
        <time>2014-11-14T13:00:28Z</time>
      </trkpt>
      <trkpt lat="42.01144" lon="8.78076">
        <ele>629.8</ele>
        <time>2014-11-14T13:00:39Z</time>
      </trkpt>
      <trkpt lat="42.01142" lon="8.78069">
        <ele>628.36</ele>
        <time>2014-11-14T13:00:52Z</time>
      </trkpt>
      <trkpt lat="42.01137" lon="8.7806">
        <ele>626.92</ele>
        <time>2014-11-14T13:01:05Z</time>
      </trkpt>
      <trkpt lat="42.01134" lon="8.78057">
        <ele>626.44</ele>
        <time>2014-11-14T13:01:16Z</time>
      </trkpt>
      <trkpt lat="42.01134" lon="8.78055">
        <ele>626.92</ele>
        <time>2014-11-14T13:01:40Z</time>
      </trkpt>
      <trkpt lat="42.01134" lon="8.78055">
        <ele>626.92</ele>
        <time>2014-11-14T13:02:12Z</time>
      </trkpt>
      <trkpt lat="42.01135" lon="8.78052">
        <ele>626.92</ele>
        <time>2014-11-14T13:02:36Z</time>
      </trkpt>
      <trkpt lat="42.01135" lon="8.7805">
        <ele>625.47</ele>
        <time>2014-11-14T13:02:49Z</time>
      </trkpt>
      <trkpt lat="42.01136" lon="8.7805">
        <ele>625.47</ele>
        <time>2014-11-14T13:03:16Z</time>
      </trkpt>
      <trkpt lat="42.01136" lon="8.78049">
        <ele>625.47</ele>
        <time>2014-11-14T13:03:46Z</time>
      </trkpt>
      <trkpt lat="42.01136" lon="8.78049">
        <ele>625.96</ele>
        <time>2014-11-14T13:04:24Z</time>
      </trkpt>
      <trkpt lat="42.01136" lon="8.78049">
        <ele>625.47</ele>
        <time>2014-11-14T13:04:55Z</time>
      </trkpt>
      <trkpt lat="42.01136" lon="8.7805">
        <ele>625.47</ele>
        <time>2014-11-14T13:05:28Z</time>
      </trkpt>
      <trkpt lat="42.01136" lon="8.7805">
        <ele>625.47</ele>
        <time>2014-11-14T13:06:01Z</time>
      </trkpt>
      <trkpt lat="42.01136" lon="8.7805">
        <ele>625.96</ele>
        <time>2014-11-14T13:06:34Z</time>
      </trkpt>
      <trkpt lat="42.01136" lon="8.78053">
        <ele>626.44</ele>
        <time>2014-11-14T13:06:44Z</time>
      </trkpt>
      <trkpt lat="42.01141" lon="8.78059">
        <ele>626.92</ele>
        <time>2014-11-14T13:06:55Z</time>
      </trkpt>
      <trkpt lat="42.01146" lon="8.78056">
        <ele>626.44</ele>
        <time>2014-11-14T13:07:06Z</time>
      </trkpt>
      <trkpt lat="42.01149" lon="8.78046">
        <ele>624.51</ele>
        <time>2014-11-14T13:07:19Z</time>
      </trkpt>
      <trkpt lat="42.01151" lon="8.78039">
        <ele>622.59</ele>
        <time>2014-11-14T13:07:31Z</time>
      </trkpt>
      <trkpt lat="42.01152" lon="8.78032">
        <ele>621.63</ele>
        <time>2014-11-14T13:07:44Z</time>
      </trkpt>
      <trkpt lat="42.01152" lon="8.78028">
        <ele>620.19</ele>
        <time>2014-11-14T13:07:58Z</time>
      </trkpt>
      <trkpt lat="42.0115" lon="8.7802">
        <ele>619.23</ele>
        <time>2014-11-14T13:08:08Z</time>
      </trkpt>
      <trkpt lat="42.0115" lon="8.78017">
        <ele>618.75</ele>
        <time>2014-11-14T13:08:10Z</time>
      </trkpt>
      <trkpt lat="42.01153" lon="8.78007">
        <ele>617.78</ele>
        <time>2014-11-14T13:08:21Z</time>
      </trkpt>
      <trkpt lat="42.01156" lon="8.77994">
        <ele>616.34</ele>
        <time>2014-11-14T13:08:33Z</time>
      </trkpt>
      <trkpt lat="42.01157" lon="8.77993">
        <ele>616.34</ele>
        <time>2014-11-14T13:08:34Z</time>
      </trkpt>
      <trkpt lat="42.01164" lon="8.77981">
        <ele>614.42</ele>
        <time>2014-11-14T13:08:48Z</time>
      </trkpt>
      <trkpt lat="42.01166" lon="8.77971">
        <ele>612.98</ele>
        <time>2014-11-14T13:09:00Z</time>
      </trkpt>
      <trkpt lat="42.01166" lon="8.77968">
        <ele>612.5</ele>
        <time>2014-11-14T13:09:13Z</time>
      </trkpt>
      <trkpt lat="42.01163" lon="8.77964">
        <ele>611.54</ele>
        <time>2014-11-14T13:09:26Z</time>
      </trkpt>
      <trkpt lat="42.01161" lon="8.77959">
        <ele>609.61</ele>
        <time>2014-11-14T13:09:37Z</time>
      </trkpt>
      <trkpt lat="42.01164" lon="8.77947">
        <ele>609.13</ele>
        <time>2014-11-14T13:09:47Z</time>
      </trkpt>
      <trkpt lat="42.01164" lon="8.77936">
        <ele>607.69</ele>
        <time>2014-11-14T13:10:00Z</time>
      </trkpt>
      <trkpt lat="42.01163" lon="8.77927">
        <ele>605.77</ele>
        <time>2014-11-14T13:10:12Z</time>
      </trkpt>
      <trkpt lat="42.01161" lon="8.77914">
        <ele>604.33</ele>
        <time>2014-11-14T13:10:25Z</time>
      </trkpt>
      <trkpt lat="42.01161" lon="8.77906">
        <ele>603.36</ele>
        <time>2014-11-14T13:10:33Z</time>
      </trkpt>
      <trkpt lat="42.0116" lon="8.77898">
        <ele>601.92</ele>
        <time>2014-11-14T13:10:45Z</time>
      </trkpt>
      <trkpt lat="42.01163" lon="8.77892">
        <ele>600.96</ele>
        <time>2014-11-14T13:10:58Z</time>
      </trkpt>
      <trkpt lat="42.01164" lon="8.77885">
        <ele>599.52</ele>
        <time>2014-11-14T13:11:10Z</time>
      </trkpt>
      <trkpt lat="42.01163" lon="8.77872">
        <ele>597.12</ele>
        <time>2014-11-14T13:11:24Z</time>
      </trkpt>
      <trkpt lat="42.01162" lon="8.77861">
        <ele>595.67</ele>
        <time>2014-11-14T13:11:35Z</time>
      </trkpt>
      <trkpt lat="42.01157" lon="8.77854">
        <ele>593.27</ele>
        <time>2014-11-14T13:11:49Z</time>
      </trkpt>
      <trkpt lat="42.01154" lon="8.7784">
        <ele>591.83</ele>
        <time>2014-11-14T13:12:04Z</time>
      </trkpt>
      <trkpt lat="42.01154" lon="8.77832">
        <ele>590.39</ele>
        <time>2014-11-14T13:12:11Z</time>
      </trkpt>
      <trkpt lat="42.01154" lon="8.77819">
        <ele>589.91</ele>
        <time>2014-11-14T13:12:22Z</time>
      </trkpt>
      <trkpt lat="42.01152" lon="8.77815">
        <ele>589.91</ele>
        <time>2014-11-14T13:12:26Z</time>
      </trkpt>
      <trkpt lat="42.0115" lon="8.77808">
        <ele>589.91</ele>
        <time>2014-11-14T13:12:32Z</time>
      </trkpt>
      <trkpt lat="42.01149" lon="8.77806">
        <ele>589.43</ele>
        <time>2014-11-14T13:12:34Z</time>
      </trkpt>
      <trkpt lat="42.01147" lon="8.77797">
        <ele>589.91</ele>
        <time>2014-11-14T13:12:48Z</time>
      </trkpt>
      <trkpt lat="42.01147" lon="8.77791">
        <ele>588.46</ele>
        <time>2014-11-14T13:13:01Z</time>
      </trkpt>
      <trkpt lat="42.01147" lon="8.77789">
        <ele>587.98</ele>
        <time>2014-11-14T13:13:17Z</time>
      </trkpt>
      <trkpt lat="42.01146" lon="8.77785">
        <ele>585.58</ele>
        <time>2014-11-14T13:13:30Z</time>
      </trkpt>
      <trkpt lat="42.01145" lon="8.77778">
        <ele>584.62</ele>
        <time>2014-11-14T13:13:42Z</time>
      </trkpt>
      <trkpt lat="42.01147" lon="8.77774">
        <ele>584.14</ele>
        <time>2014-11-14T13:13:56Z</time>
      </trkpt>
      <trkpt lat="42.01149" lon="8.77768">
        <ele>582.7</ele>
        <time>2014-11-14T13:14:13Z</time>
      </trkpt>
      <trkpt lat="42.0115" lon="8.77765">
        <ele>581.73</ele>
        <time>2014-11-14T13:14:28Z</time>
      </trkpt>
      <trkpt lat="42.01152" lon="8.77761">
        <ele>579.81</ele>
        <time>2014-11-14T13:14:41Z</time>
      </trkpt>
      <trkpt lat="42.0115" lon="8.77756">
        <ele>578.85</ele>
        <time>2014-11-14T13:14:54Z</time>
      </trkpt>
      <trkpt lat="42.0115" lon="8.77753">
        <ele>577.89</ele>
        <time>2014-11-14T13:15:07Z</time>
      </trkpt>
      <trkpt lat="42.0115" lon="8.77747">
        <ele>576.45</ele>
        <time>2014-11-14T13:15:18Z</time>
      </trkpt>
      <trkpt lat="42.01151" lon="8.77742">
        <ele>575.01</ele>
        <time>2014-11-14T13:15:31Z</time>
      </trkpt>
      <trkpt lat="42.01152" lon="8.77736">
        <ele>574.04</ele>
        <time>2014-11-14T13:15:42Z</time>
      </trkpt>
      <trkpt lat="42.01154" lon="8.77726">
        <ele>573.08</ele>
        <time>2014-11-14T13:15:57Z</time>
      </trkpt>
      <trkpt lat="42.01155" lon="8.77718">
        <ele>571.64</ele>
        <time>2014-11-14T13:16:09Z</time>
      </trkpt>
      <trkpt lat="42.01156" lon="8.7771">
        <ele>570.2</ele>
        <time>2014-11-14T13:16:22Z</time>
      </trkpt>
      <trkpt lat="42.01154" lon="8.77701">
        <ele>569.24</ele>
        <time>2014-11-14T13:16:34Z</time>
      </trkpt>
      <trkpt lat="42.01157" lon="8.77688">
        <ele>567.8</ele>
        <time>2014-11-14T13:16:47Z</time>
      </trkpt>
      <trkpt lat="42.01158" lon="8.77679">
        <ele>566.35</ele>
        <time>2014-11-14T13:16:59Z</time>
      </trkpt>
      <trkpt lat="42.01159" lon="8.77669">
        <ele>565.39</ele>
        <time>2014-11-14T13:17:10Z</time>
      </trkpt>
      <trkpt lat="42.01158" lon="8.77657">
        <ele>563.95</ele>
        <time>2014-11-14T13:17:23Z</time>
      </trkpt>
      <trkpt lat="42.01161" lon="8.77646">
        <ele>562.51</ele>
        <time>2014-11-14T13:17:37Z</time>
      </trkpt>
      <trkpt lat="42.01161" lon="8.77639">
        <ele>561.55</ele>
        <time>2014-11-14T13:17:50Z</time>
      </trkpt>
      <trkpt lat="42.01163" lon="8.77636">
        <ele>561.07</ele>
        <time>2014-11-14T13:18:05Z</time>
      </trkpt>
      <trkpt lat="42.01165" lon="8.77636">
        <ele>560.59</ele>
        <time>2014-11-14T13:18:15Z</time>
      </trkpt>
      <trkpt lat="42.01164" lon="8.77632">
        <ele>559.14</ele>
        <time>2014-11-14T13:18:29Z</time>
      </trkpt>
      <trkpt lat="42.0116" lon="8.77629">
        <ele>558.18</ele>
        <time>2014-11-14T13:18:41Z</time>
      </trkpt>
      <trkpt lat="42.01159" lon="8.77629">
        <ele>557.7</ele>
        <time>2014-11-14T13:18:49Z</time>
      </trkpt>
      <trkpt lat="42.01155" lon="8.77628">
        <ele>556.74</ele>
        <time>2014-11-14T13:19:06Z</time>
      </trkpt>
      <trkpt lat="42.01154" lon="8.77626">
        <ele>556.74</ele>
        <time>2014-11-14T13:19:25Z</time>
      </trkpt>
      <trkpt lat="42.01154" lon="8.77624">
        <ele>555.78</ele>
        <time>2014-11-14T13:19:47Z</time>
      </trkpt>
      <trkpt lat="42.01152" lon="8.77622">
        <ele>554.34</ele>
        <time>2014-11-14T13:19:59Z</time>
      </trkpt>
      <trkpt lat="42.01148" lon="8.77617">
        <ele>552.9</ele>
        <time>2014-11-14T13:20:11Z</time>
      </trkpt>
      <trkpt lat="42.01147" lon="8.77612">
        <ele>551.93</ele>
        <time>2014-11-14T13:20:23Z</time>
      </trkpt>
      <trkpt lat="42.01145" lon="8.77606">
        <ele>550.01</ele>
        <time>2014-11-14T13:20:36Z</time>
      </trkpt>
      <trkpt lat="42.01145" lon="8.77601">
        <ele>549.05</ele>
        <time>2014-11-14T13:20:50Z</time>
      </trkpt>
      <trkpt lat="42.01144" lon="8.77596">
        <ele>547.13</ele>
        <time>2014-11-14T13:21:10Z</time>
      </trkpt>
      <trkpt lat="42.01142" lon="8.7759">
        <ele>545.69</ele>
        <time>2014-11-14T13:21:22Z</time>
      </trkpt>
      <trkpt lat="42.0114" lon="8.77585">
        <ele>544.72</ele>
        <time>2014-11-14T13:21:34Z</time>
      </trkpt>
      <trkpt lat="42.01136" lon="8.77578">
        <ele>543.28</ele>
        <time>2014-11-14T13:21:47Z</time>
      </trkpt>
      <trkpt lat="42.01136" lon="8.77572">
        <ele>541.36</ele>
        <time>2014-11-14T13:22:01Z</time>
      </trkpt>
      <trkpt lat="42.01135" lon="8.77559">
        <ele>539.92</ele>
        <time>2014-11-14T13:22:15Z</time>
      </trkpt>
      <trkpt lat="42.01135" lon="8.77558">
        <ele>539.92</ele>
        <time>2014-11-14T13:22:16Z</time>
      </trkpt>
      <trkpt lat="42.01134" lon="8.77555">
        <ele>539.44</ele>
        <time>2014-11-14T13:22:18Z</time>
      </trkpt>
      <trkpt lat="42.0113" lon="8.77541">
        <ele>538.96</ele>
        <time>2014-11-14T13:22:32Z</time>
      </trkpt>
      <trkpt lat="42.01129" lon="8.7753">
        <ele>537.99</ele>
        <time>2014-11-14T13:22:45Z</time>
      </trkpt>
      <trkpt lat="42.0113" lon="8.7752">
        <ele>537.51</ele>
        <time>2014-11-14T13:22:52Z</time>
      </trkpt>
      <trkpt lat="42.01131" lon="8.77515">
        <ele>537.99</ele>
        <time>2014-11-14T13:22:56Z</time>
      </trkpt>
      <trkpt lat="42.01134" lon="8.77506">
        <ele>537.99</ele>
        <time>2014-11-14T13:23:05Z</time>
      </trkpt>
      <trkpt lat="42.01135" lon="8.77499">
        <ele>537.51</ele>
        <time>2014-11-14T13:23:12Z</time>
      </trkpt>
      <trkpt lat="42.01137" lon="8.77494">
        <ele>536.55</ele>
        <time>2014-11-14T13:23:23Z</time>
      </trkpt>
      <trkpt lat="42.01136" lon="8.77486">
        <ele>536.55</ele>
        <time>2014-11-14T13:23:37Z</time>
      </trkpt>
      <trkpt lat="42.01135" lon="8.77484">
        <ele>535.11</ele>
        <time>2014-11-14T13:23:46Z</time>
      </trkpt>
      <trkpt lat="42.01135" lon="8.77477">
        <ele>534.15</ele>
        <time>2014-11-14T13:23:59Z</time>
      </trkpt>
      <trkpt lat="42.01136" lon="8.77471">
        <ele>533.67</ele>
        <time>2014-11-14T13:24:11Z</time>
      </trkpt>
      <trkpt lat="42.01136" lon="8.77467">
        <ele>532.71</ele>
        <time>2014-11-14T13:24:23Z</time>
      </trkpt>
      <trkpt lat="42.01137" lon="8.77464">
        <ele>531.27</ele>
        <time>2014-11-14T13:24:36Z</time>
      </trkpt>
      <trkpt lat="42.01135" lon="8.77461">
        <ele>529.82</ele>
        <time>2014-11-14T13:24:50Z</time>
      </trkpt>
      <trkpt lat="42.01132" lon="8.77459">
        <ele>528.86</ele>
        <time>2014-11-14T13:25:04Z</time>
      </trkpt>
      <trkpt lat="42.01131" lon="8.77455">
        <ele>527.42</ele>
        <time>2014-11-14T13:25:17Z</time>
      </trkpt>
      <trkpt lat="42.01129" lon="8.77452">
        <ele>528.38</ele>
        <time>2014-11-14T13:25:37Z</time>
      </trkpt>
      <trkpt lat="42.01129" lon="8.7745">
        <ele>525.02</ele>
        <time>2014-11-14T13:25:56Z</time>
      </trkpt>
      <trkpt lat="42.01129" lon="8.7745">
        <ele>525.98</ele>
        <time>2014-11-14T13:25:58Z</time>
      </trkpt>
      <trkpt lat="42.01134" lon="8.77446">
        <ele>524.06</ele>
        <time>2014-11-14T13:26:12Z</time>
      </trkpt>
      <trkpt lat="42.01135" lon="8.77443">
        <ele>522.61</ele>
        <time>2014-11-14T13:26:28Z</time>
      </trkpt>
      <trkpt lat="42.01138" lon="8.77441">
        <ele>522.13</ele>
        <time>2014-11-14T13:26:47Z</time>
      </trkpt>
      <trkpt lat="42.0114" lon="8.7744">
        <ele>521.17</ele>
        <time>2014-11-14T13:26:59Z</time>
      </trkpt>
      <trkpt lat="42.01141" lon="8.77437">
        <ele>519.73</ele>
        <time>2014-11-14T13:27:15Z</time>
      </trkpt>
      <trkpt lat="42.01141" lon="8.77436">
        <ele>519.25</ele>
        <time>2014-11-14T13:27:26Z</time>
      </trkpt>
      <trkpt lat="42.01142" lon="8.77433">
        <ele>518.29</ele>
        <time>2014-11-14T13:27:38Z</time>
      </trkpt>
      <trkpt lat="42.01144" lon="8.7743">
        <ele>516.85</ele>
        <time>2014-11-14T13:27:50Z</time>
      </trkpt>
      <trkpt lat="42.01146" lon="8.77426">
        <ele>515.4</ele>
        <time>2014-11-14T13:28:06Z</time>
      </trkpt>
      <trkpt lat="42.01146" lon="8.77421">
        <ele>514.44</ele>
        <time>2014-11-14T13:28:19Z</time>
      </trkpt>
      <trkpt lat="42.01146" lon="8.77415">
        <ele>513</ele>
        <time>2014-11-14T13:28:33Z</time>
      </trkpt>
      <trkpt lat="42.01148" lon="8.77411">
        <ele>511.56</ele>
        <time>2014-11-14T13:28:45Z</time>
      </trkpt>
      <trkpt lat="42.0115" lon="8.77407">
        <ele>509.64</ele>
        <time>2014-11-14T13:28:59Z</time>
      </trkpt>
      <trkpt lat="42.01151" lon="8.77402">
        <ele>508.19</ele>
        <time>2014-11-14T13:29:13Z</time>
      </trkpt>
      <trkpt lat="42.01151" lon="8.77395">
        <ele>506.75</ele>
        <time>2014-11-14T13:29:26Z</time>
      </trkpt>
      <trkpt lat="42.01153" lon="8.77383">
        <ele>505.31</ele>
        <time>2014-11-14T13:29:38Z</time>
      </trkpt>
      <trkpt lat="42.01153" lon="8.77371">
        <ele>503.87</ele>
        <time>2014-11-14T13:29:51Z</time>
      </trkpt>
      <trkpt lat="42.01155" lon="8.77362">
        <ele>502.43</ele>
        <time>2014-11-14T13:30:06Z</time>
      </trkpt>
      <trkpt lat="42.01155" lon="8.77349">
        <ele>500.98</ele>
        <time>2014-11-14T13:30:18Z</time>
      </trkpt>
      <trkpt lat="42.01154" lon="8.77328">
        <ele>499.06</ele>
        <time>2014-11-14T13:30:34Z</time>
      </trkpt>
      <trkpt lat="42.01152" lon="8.77318">
        <ele>499.06</ele>
        <time>2014-11-14T13:30:45Z</time>
      </trkpt>
      <trkpt lat="42.01152" lon="8.77314">
        <ele>497.14</ele>
        <time>2014-11-14T13:30:55Z</time>
      </trkpt>
      <trkpt lat="42.01152" lon="8.77309">
        <ele>496.18</ele>
        <time>2014-11-14T13:31:08Z</time>
      </trkpt>
      <trkpt lat="42.01152" lon="8.77304">
        <ele>495.22</ele>
        <time>2014-11-14T13:31:21Z</time>
      </trkpt>
      <trkpt lat="42.01152" lon="8.77303">
        <ele>494.74</ele>
        <time>2014-11-14T13:31:24Z</time>
      </trkpt>
      <trkpt lat="42.01154" lon="8.77293">
        <ele>493.29</ele>
        <time>2014-11-14T13:31:35Z</time>
      </trkpt>
      <trkpt lat="42.01154" lon="8.7729">
        <ele>493.77</ele>
        <time>2014-11-14T13:31:49Z</time>
      </trkpt>
      <trkpt lat="42.01154" lon="8.77288">
        <ele>493.77</ele>
        <time>2014-11-14T13:32:08Z</time>
      </trkpt>
      <trkpt lat="42.01153" lon="8.77285">
        <ele>493.29</ele>
        <time>2014-11-14T13:32:44Z</time>
      </trkpt>
      <trkpt lat="42.01153" lon="8.77279">
        <ele>492.33</ele>
        <time>2014-11-14T13:33:01Z</time>
      </trkpt>
      <trkpt lat="42.01156" lon="8.77269">
        <ele>490.41</ele>
        <time>2014-11-14T13:33:13Z</time>
      </trkpt>
      <trkpt lat="42.01157" lon="8.77258">
        <ele>487.53</ele>
        <time>2014-11-14T13:33:25Z</time>
      </trkpt>
      <trkpt lat="42.01159" lon="8.77252">
        <ele>485.6</ele>
        <time>2014-11-14T13:33:38Z</time>
      </trkpt>
      <trkpt lat="42.01158" lon="8.77248">
        <ele>484.64</ele>
        <time>2014-11-14T13:33:52Z</time>
      </trkpt>
      <trkpt lat="42.01159" lon="8.77243">
        <ele>482.72</ele>
        <time>2014-11-14T13:34:06Z</time>
      </trkpt>
      <trkpt lat="42.0116" lon="8.7724">
        <ele>482.24</ele>
        <time>2014-11-14T13:34:16Z</time>
      </trkpt>
      <trkpt lat="42.01161" lon="8.77235">
        <ele>481.76</ele>
        <time>2014-11-14T13:34:30Z</time>
      </trkpt>
      <trkpt lat="42.01162" lon="8.77233">
        <ele>481.28</ele>
        <time>2014-11-14T13:34:43Z</time>
      </trkpt>
      <trkpt lat="42.01162" lon="8.77228">
        <ele>481.28</ele>
        <time>2014-11-14T13:35:16Z</time>
      </trkpt>
      <trkpt lat="42.01162" lon="8.77226">
        <ele>481.76</ele>
        <time>2014-11-14T13:35:33Z</time>
      </trkpt>
      <trkpt lat="42.01162" lon="8.77224">
        <ele>481.28</ele>
        <time>2014-11-14T13:36:02Z</time>
      </trkpt>
      <trkpt lat="42.01163" lon="8.77223">
        <ele>481.76</ele>
        <time>2014-11-14T13:36:27Z</time>
      </trkpt>
      <trkpt lat="42.01163" lon="8.77223">
        <ele>481.76</ele>
        <time>2014-11-14T13:36:58Z</time>
      </trkpt>
      <trkpt lat="42.01163" lon="8.77223">
        <ele>480.32</ele>
        <time>2014-11-14T13:37:10Z</time>
      </trkpt>
      <trkpt lat="42.01163" lon="8.77222">
        <ele>479.84</ele>
        <time>2014-11-14T13:37:24Z</time>
      </trkpt>
      <trkpt lat="42.01163" lon="8.77221">
        <ele>478.39</ele>
        <time>2014-11-14T13:37:35Z</time>
      </trkpt>
      <trkpt lat="42.01163" lon="8.77219">
        <ele>477.91</ele>
        <time>2014-11-14T13:37:50Z</time>
      </trkpt>
      <trkpt lat="42.01163" lon="8.77215">
        <ele>475.99</ele>
        <time>2014-11-14T13:38:03Z</time>
      </trkpt>
      <trkpt lat="42.01165" lon="8.77197">
        <ele>474.55</ele>
        <time>2014-11-14T13:38:19Z</time>
      </trkpt>
      <trkpt lat="42.01164" lon="8.77189">
        <ele>473.59</ele>
        <time>2014-11-14T13:38:32Z</time>
      </trkpt>
      <trkpt lat="42.01165" lon="8.77182">
        <ele>472.14</ele>
        <time>2014-11-14T13:38:46Z</time>
      </trkpt>
      <trkpt lat="42.01165" lon="8.77179">
        <ele>470.7</ele>
        <time>2014-11-14T13:39:02Z</time>
      </trkpt>
      <trkpt lat="42.01165" lon="8.77177">
        <ele>470.22</ele>
        <time>2014-11-14T13:39:14Z</time>
      </trkpt>
      <trkpt lat="42.01164" lon="8.77175">
        <ele>468.78</ele>
        <time>2014-11-14T13:39:29Z</time>
      </trkpt>
      <trkpt lat="42.01164" lon="8.77174">
        <ele>468.3</ele>
        <time>2014-11-14T13:39:46Z</time>
      </trkpt>
      <trkpt lat="42.01162" lon="8.77167">
        <ele>466.38</ele>
        <time>2014-11-14T13:40:08Z</time>
      </trkpt>
      <trkpt lat="42.01159" lon="8.77161">
        <ele>465.9</ele>
        <time>2014-11-14T13:40:28Z</time>
      </trkpt>
      <trkpt lat="42.01156" lon="8.77153">
        <ele>465.9</ele>
        <time>2014-11-14T13:40:51Z</time>
      </trkpt>
      <trkpt lat="42.01155" lon="8.77149">
        <ele>465.42</ele>
        <time>2014-11-14T13:41:02Z</time>
      </trkpt>
      <trkpt lat="42.01154" lon="8.77147">
        <ele>464.93</ele>
        <time>2014-11-14T13:41:17Z</time>
      </trkpt>
      <trkpt lat="42.01151" lon="8.77141">
        <ele>463.97</ele>
        <time>2014-11-14T13:41:30Z</time>
      </trkpt>
      <trkpt lat="42.01148" lon="8.77133">
        <ele>462.05</ele>
        <time>2014-11-14T13:41:42Z</time>
      </trkpt>
      <trkpt lat="42.01147" lon="8.77126">
        <ele>460.61</ele>
        <time>2014-11-14T13:41:56Z</time>
      </trkpt>
      <trkpt lat="42.01145" lon="8.7712">
        <ele>460.13</ele>
        <time>2014-11-14T13:42:10Z</time>
      </trkpt>
      <trkpt lat="42.01143" lon="8.77115">
        <ele>459.17</ele>
        <time>2014-11-14T13:42:22Z</time>
      </trkpt>
      <trkpt lat="42.01142" lon="8.77114">
        <ele>458.69</ele>
        <time>2014-11-14T13:42:34Z</time>
      </trkpt>
      <trkpt lat="42.01141" lon="8.77113">
        <ele>457.72</ele>
        <time>2014-11-14T13:42:48Z</time>
      </trkpt>
      <trkpt lat="42.0114" lon="8.77112">
        <ele>457.72</ele>
        <time>2014-11-14T13:42:53Z</time>
      </trkpt>
      <trkpt lat="42.01134" lon="8.77106">
        <ele>455.8</ele>
        <time>2014-11-14T13:43:07Z</time>
      </trkpt>
      <trkpt lat="42.0113" lon="8.77101">
        <ele>454.36</ele>
        <time>2014-11-14T13:43:20Z</time>
      </trkpt>
      <trkpt lat="42.01125" lon="8.77095">
        <ele>452.44</ele>
        <time>2014-11-14T13:43:34Z</time>
      </trkpt>
      <trkpt lat="42.01123" lon="8.77093">
        <ele>451.96</ele>
        <time>2014-11-14T13:43:47Z</time>
      </trkpt>
      <trkpt lat="42.01123" lon="8.77091">
        <ele>451</ele>
        <time>2014-11-14T13:44:03Z</time>
      </trkpt>
      <trkpt lat="42.01119" lon="8.77087">
        <ele>450.03</ele>
        <time>2014-11-14T13:44:16Z</time>
      </trkpt>
      <trkpt lat="42.01114" lon="8.77081">
        <ele>449.07</ele>
        <time>2014-11-14T13:44:29Z</time>
      </trkpt>
      <trkpt lat="42.01111" lon="8.77079">
        <ele>448.11</ele>
        <time>2014-11-14T13:44:42Z</time>
      </trkpt>
      <trkpt lat="42.01108" lon="8.77077">
        <ele>447.15</ele>
        <time>2014-11-14T13:44:56Z</time>
      </trkpt>
      <trkpt lat="42.01107" lon="8.77076">
        <ele>446.67</ele>
        <time>2014-11-14T13:45:08Z</time>
      </trkpt>
      <trkpt lat="42.01103" lon="8.77072">
        <ele>445.71</ele>
        <time>2014-11-14T13:45:21Z</time>
      </trkpt>
      <trkpt lat="42.011" lon="8.77068">
        <ele>445.23</ele>
        <time>2014-11-14T13:45:35Z</time>
      </trkpt>
      <trkpt lat="42.01095" lon="8.7706">
        <ele>444.27</ele>
        <time>2014-11-14T13:45:51Z</time>
      </trkpt>
      <trkpt lat="42.01089" lon="8.77049">
        <ele>442.34</ele>
        <time>2014-11-14T13:46:06Z</time>
      </trkpt>
      <trkpt lat="42.01089" lon="8.77036">
        <ele>441.38</ele>
        <time>2014-11-14T13:46:17Z</time>
      </trkpt>
      <trkpt lat="42.01089" lon="8.77029">
        <ele>440.9</ele>
        <time>2014-11-14T13:46:24Z</time>
      </trkpt>
      <trkpt lat="42.01085" lon="8.77013">
        <ele>439.94</ele>
        <time>2014-11-14T13:46:37Z</time>
      </trkpt>
      <trkpt lat="42.01081" lon="8.77006">
        <ele>439.46</ele>
        <time>2014-11-14T13:46:45Z</time>
      </trkpt>
      <trkpt lat="42.01074" lon="8.7699">
        <ele>438.5</ele>
        <time>2014-11-14T13:46:58Z</time>
      </trkpt>
      <trkpt lat="42.01066" lon="8.76973">
        <ele>436.58</ele>
        <time>2014-11-14T13:47:12Z</time>
      </trkpt>
      <trkpt lat="42.01062" lon="8.76966">
        <ele>435.61</ele>
        <time>2014-11-14T13:47:25Z</time>
      </trkpt>
      <trkpt lat="42.01054" lon="8.76954">
        <ele>434.17</ele>
        <time>2014-11-14T13:47:37Z</time>
      </trkpt>
      <trkpt lat="42.01048" lon="8.76944">
        <ele>432.73</ele>
        <time>2014-11-14T13:47:48Z</time>
      </trkpt>
      <trkpt lat="42.01048" lon="8.76944">
        <ele>432.73</ele>
        <time>2014-11-14T13:47:49Z</time>
      </trkpt>
      <trkpt lat="42.01038" lon="8.7693">
        <ele>430.81</ele>
        <time>2014-11-14T13:48:06Z</time>
      </trkpt>
      <trkpt lat="42.01034" lon="8.76915">
        <ele>429.85</ele>
        <time>2014-11-14T13:48:19Z</time>
      </trkpt>
      <trkpt lat="42.01038" lon="8.76906">
        <ele>429.85</ele>
        <time>2014-11-14T13:48:33Z</time>
      </trkpt>
      <trkpt lat="42.01037" lon="8.76906">
        <ele>430.33</ele>
        <time>2014-11-14T13:48:47Z</time>
      </trkpt>
      <trkpt lat="42.01035" lon="8.769">
        <ele>430.33</ele>
        <time>2014-11-14T13:49:09Z</time>
      </trkpt>
      <trkpt lat="42.01034" lon="8.76895">
        <ele>430.33</ele>
        <time>2014-11-14T13:49:13Z</time>
      </trkpt>
      <trkpt lat="42.01032" lon="8.76891">
        <ele>430.33</ele>
        <time>2014-11-14T13:49:29Z</time>
      </trkpt>
      <trkpt lat="42.01032" lon="8.76892">
        <ele>430.33</ele>
        <time>2014-11-14T13:49:56Z</time>
      </trkpt>
      <trkpt lat="42.01031" lon="8.7689">
        <ele>430.33</ele>
        <time>2014-11-14T13:50:23Z</time>
      </trkpt>
      <trkpt lat="42.0103" lon="8.76889">
        <ele>429.37</ele>
        <time>2014-11-14T13:50:53Z</time>
      </trkpt>
      <trkpt lat="42.0103" lon="8.76889">
        <ele>431.29</ele>
        <time>2014-11-14T13:50:59Z</time>
      </trkpt>
      <trkpt lat="42.0103" lon="8.76889">
        <ele>430.33</ele>
        <time>2014-11-14T13:51:14Z</time>
      </trkpt>
      <trkpt lat="42.01029" lon="8.76888">
        <ele>430.33</ele>
        <time>2014-11-14T13:51:32Z</time>
      </trkpt>
      <trkpt lat="42.01028" lon="8.76888">
        <ele>430.33</ele>
        <time>2014-11-14T13:51:47Z</time>
      </trkpt>
      <trkpt lat="42.01026" lon="8.76888">
        <ele>430.33</ele>
        <time>2014-11-14T13:51:57Z</time>
      </trkpt>
      <trkpt lat="42.01026" lon="8.76888">
        <ele>427.92</ele>
        <time>2014-11-14T13:51:59Z</time>
      </trkpt>
      <trkpt lat="42.01029" lon="8.76883">
        <ele>428.4</ele>
        <time>2014-11-14T13:52:11Z</time>
      </trkpt>
      <trkpt lat="42.01062" lon="8.76913">
        <ele>426.96</ele>
        <time>2014-11-14T13:52:24Z</time>
      </trkpt>
      <trkpt lat="42.01088" lon="8.76944">
        <ele>425.04</ele>
        <time>2014-11-14T13:52:34Z</time>
      </trkpt>
      <trkpt lat="42.01097" lon="8.76905">
        <ele>421.19</ele>
        <time>2014-11-14T13:52:41Z</time>
      </trkpt>
      <trkpt lat="42.01087" lon="8.76874">
        <ele>417.35</ele>
        <time>2014-11-14T13:52:45Z</time>
      </trkpt>
      <trkpt lat="42.01085" lon="8.76835">
        <ele>413.98</ele>
        <time>2014-11-14T13:52:49Z</time>
      </trkpt>
      <trkpt lat="42.01089" lon="8.76816">
        <ele>412.54</ele>
        <time>2014-11-14T13:52:51Z</time>
      </trkpt>
      <trkpt lat="42.01091" lon="8.76806">
        <ele>411.58</ele>
        <time>2014-11-14T13:52:52Z</time>
      </trkpt>
      <trkpt lat="42.01091" lon="8.76765">
        <ele>406.77</ele>
        <time>2014-11-14T13:52:56Z</time>
      </trkpt>
      <trkpt lat="42.01089" lon="8.76734">
        <ele>402.93</ele>
        <time>2014-11-14T13:52:59Z</time>
      </trkpt>
      <trkpt lat="42.01078" lon="8.76688">
        <ele>397.64</ele>
        <time>2014-11-14T13:53:03Z</time>
      </trkpt>
      <trkpt lat="42.01071" lon="8.76661">
        <ele>394.76</ele>
        <time>2014-11-14T13:53:05Z</time>
      </trkpt>
      <trkpt lat="42.01064" lon="8.7662">
        <ele>390.43</ele>
        <time>2014-11-14T13:53:08Z</time>
      </trkpt>
      <trkpt lat="42.01054" lon="8.7658">
        <ele>386.11</ele>
        <time>2014-11-14T13:53:11Z</time>
      </trkpt>
      <trkpt lat="42.01048" lon="8.76555">
        <ele>383.22</ele>
        <time>2014-11-14T13:53:13Z</time>
      </trkpt>
      <trkpt lat="42.01043" lon="8.76531">
        <ele>380.34</ele>
        <time>2014-11-14T13:53:15Z</time>
      </trkpt>
      <trkpt lat="42.01051" lon="8.76493">
        <ele>377.45</ele>
        <time>2014-11-14T13:53:19Z</time>
      </trkpt>
      <trkpt lat="42.01071" lon="8.76458">
        <ele>380.34</ele>
        <time>2014-11-14T13:53:23Z</time>
      </trkpt>
      <trkpt lat="42.01073" lon="8.76419">
        <ele>383.7</ele>
        <time>2014-11-14T13:53:28Z</time>
      </trkpt>
      <trkpt lat="42.01072" lon="8.76412">
        <ele>384.18</ele>
        <time>2014-11-14T13:53:29Z</time>
      </trkpt>
      <trkpt lat="42.01067" lon="8.76399">
        <ele>386.11</ele>
        <time>2014-11-14T13:53:32Z</time>
      </trkpt>
      <trkpt lat="42.0104" lon="8.76367">
        <ele>381.78</ele>
        <time>2014-11-14T13:53:38Z</time>
      </trkpt>
      <trkpt lat="42.01008" lon="8.76337">
        <ele>377.94</ele>
        <time>2014-11-14T13:53:42Z</time>
      </trkpt>
      <trkpt lat="42.00995" lon="8.76322">
        <ele>376.97</ele>
        <time>2014-11-14T13:53:44Z</time>
      </trkpt>
    </trkseg>
  </trk>
</gpx>